<?xml version="1.0" encoding="UTF-8" standalone="no" ?>
<gpx xmlns="http://www.topografix.com/GPX/1/1" xmlns:xsi="http://www.w3.org/2001/XMLSchema-instance" xsi:schemaLocation="http://www.topografix.com/GPX/1/1 http://www.topografix.com/GPX/1/1/gpx.xsd" version="1.1" creator="VisuGPX - https://www.visugpx.com">
  <metadata>
    <name>Siros</name>
    <desc><![CDATA[Balade dans la nature et sur les berges du gave de Pau. Quasiment pas de goudron. Parcours très plat sans aucune difficulté.]]></desc>
  </metadata>
  <trk>
    <name><![CDATA[Tracé actuel: 03 JUIL 2012 14:13]]></name>
    <trkseg>
      <trkpt lat="43.34388" lon="-0.48321">
        <ele>134.72</ele>
        <time>2012-07-03T12:13:22Z</time>
      </trkpt>
      <trkpt lat="43.3438" lon="-0.4833">
        <ele>128.47</ele>
        <time>2012-07-03T12:14:42Z</time>
      </trkpt>
      <trkpt lat="43.34371" lon="-0.48339">
        <ele>128.47</ele>
        <time>2012-07-03T12:14:58Z</time>
      </trkpt>
      <trkpt lat="43.34363" lon="-0.48341">
        <ele>128.47</ele>
        <time>2012-07-03T12:15:08Z</time>
      </trkpt>
      <trkpt lat="43.34353" lon="-0.4833">
        <ele>127.99</ele>
        <time>2012-07-03T12:15:18Z</time>
      </trkpt>
      <trkpt lat="43.34349" lon="-0.48317">
        <ele>128.47</ele>
        <time>2012-07-03T12:15:26Z</time>
      </trkpt>
      <trkpt lat="43.34342" lon="-0.48311">
        <ele>128.47</ele>
        <time>2012-07-03T12:15:38Z</time>
      </trkpt>
      <trkpt lat="43.34333" lon="-0.48317">
        <ele>128.47</ele>
        <time>2012-07-03T12:15:48Z</time>
      </trkpt>
      <trkpt lat="43.34325" lon="-0.48328">
        <ele>128.47</ele>
        <time>2012-07-03T12:15:58Z</time>
      </trkpt>
      <trkpt lat="43.34316" lon="-0.48335">
        <ele>128.47</ele>
        <time>2012-07-03T12:16:07Z</time>
      </trkpt>
      <trkpt lat="43.34307" lon="-0.48342">
        <ele>128.95</ele>
        <time>2012-07-03T12:16:16Z</time>
      </trkpt>
      <trkpt lat="43.34298" lon="-0.48348">
        <ele>128.47</ele>
        <time>2012-07-03T12:16:26Z</time>
      </trkpt>
      <trkpt lat="43.3429" lon="-0.48356">
        <ele>128.47</ele>
        <time>2012-07-03T12:16:35Z</time>
      </trkpt>
      <trkpt lat="43.34282" lon="-0.48362">
        <ele>128.95</ele>
        <time>2012-07-03T12:16:44Z</time>
      </trkpt>
      <trkpt lat="43.34274" lon="-0.4837">
        <ele>128.95</ele>
        <time>2012-07-03T12:16:53Z</time>
      </trkpt>
      <trkpt lat="43.34266" lon="-0.48379">
        <ele>128.47</ele>
        <time>2012-07-03T12:17:02Z</time>
      </trkpt>
      <trkpt lat="43.34257" lon="-0.48387">
        <ele>128.47</ele>
        <time>2012-07-03T12:17:11Z</time>
      </trkpt>
      <trkpt lat="43.34248" lon="-0.48395">
        <ele>128.47</ele>
        <time>2012-07-03T12:17:21Z</time>
      </trkpt>
      <trkpt lat="43.34241" lon="-0.48405">
        <ele>128.95</ele>
        <time>2012-07-03T12:17:30Z</time>
      </trkpt>
      <trkpt lat="43.34233" lon="-0.48414">
        <ele>128.95</ele>
        <time>2012-07-03T12:17:40Z</time>
      </trkpt>
      <trkpt lat="43.34223" lon="-0.48422">
        <ele>128.95</ele>
        <time>2012-07-03T12:17:48Z</time>
      </trkpt>
      <trkpt lat="43.34214" lon="-0.48426">
        <ele>128.95</ele>
        <time>2012-07-03T12:17:56Z</time>
      </trkpt>
      <trkpt lat="43.34206" lon="-0.48419">
        <ele>128.95</ele>
        <time>2012-07-03T12:18:05Z</time>
      </trkpt>
      <trkpt lat="43.342" lon="-0.48408">
        <ele>129.43</ele>
        <time>2012-07-03T12:18:15Z</time>
      </trkpt>
      <trkpt lat="43.34196" lon="-0.48395">
        <ele>129.43</ele>
        <time>2012-07-03T12:18:25Z</time>
      </trkpt>
      <trkpt lat="43.34189" lon="-0.48385">
        <ele>129.43</ele>
        <time>2012-07-03T12:18:34Z</time>
      </trkpt>
      <trkpt lat="43.34184" lon="-0.48372">
        <ele>129.43</ele>
        <time>2012-07-03T12:18:44Z</time>
      </trkpt>
      <trkpt lat="43.34178" lon="-0.48362">
        <ele>129.43</ele>
        <time>2012-07-03T12:18:53Z</time>
      </trkpt>
      <trkpt lat="43.34172" lon="-0.48349">
        <ele>129.92</ele>
        <time>2012-07-03T12:19:03Z</time>
      </trkpt>
      <trkpt lat="43.34167" lon="-0.48334">
        <ele>129.92</ele>
        <time>2012-07-03T12:19:12Z</time>
      </trkpt>
      <trkpt lat="43.34163" lon="-0.4832">
        <ele>129.92</ele>
        <time>2012-07-03T12:19:21Z</time>
      </trkpt>
      <trkpt lat="43.34158" lon="-0.48309">
        <ele>129.92</ele>
        <time>2012-07-03T12:19:29Z</time>
      </trkpt>
      <trkpt lat="43.34151" lon="-0.483">
        <ele>130.4</ele>
        <time>2012-07-03T12:19:38Z</time>
      </trkpt>
      <trkpt lat="43.34145" lon="-0.48286">
        <ele>130.4</ele>
        <time>2012-07-03T12:19:47Z</time>
      </trkpt>
      <trkpt lat="43.34139" lon="-0.48274">
        <ele>130.4</ele>
        <time>2012-07-03T12:19:56Z</time>
      </trkpt>
      <trkpt lat="43.34133" lon="-0.4826">
        <ele>129.92</ele>
        <time>2012-07-03T12:20:06Z</time>
      </trkpt>
      <trkpt lat="43.34126" lon="-0.48248">
        <ele>129.92</ele>
        <time>2012-07-03T12:20:16Z</time>
      </trkpt>
      <trkpt lat="43.34121" lon="-0.48237">
        <ele>130.4</ele>
        <time>2012-07-03T12:20:25Z</time>
      </trkpt>
      <trkpt lat="43.34112" lon="-0.48225">
        <ele>129.92</ele>
        <time>2012-07-03T12:20:35Z</time>
      </trkpt>
      <trkpt lat="43.34103" lon="-0.48217">
        <ele>129.92</ele>
        <time>2012-07-03T12:20:44Z</time>
      </trkpt>
      <trkpt lat="43.34093" lon="-0.48213">
        <ele>129.92</ele>
        <time>2012-07-03T12:20:54Z</time>
      </trkpt>
      <trkpt lat="43.34083" lon="-0.48207">
        <ele>130.4</ele>
        <time>2012-07-03T12:21:03Z</time>
      </trkpt>
      <trkpt lat="43.34075" lon="-0.48202">
        <ele>130.4</ele>
        <time>2012-07-03T12:21:11Z</time>
      </trkpt>
      <trkpt lat="43.34065" lon="-0.48195">
        <ele>130.4</ele>
        <time>2012-07-03T12:21:20Z</time>
      </trkpt>
      <trkpt lat="43.34054" lon="-0.48188">
        <ele>130.4</ele>
        <time>2012-07-03T12:21:30Z</time>
      </trkpt>
      <trkpt lat="43.34044" lon="-0.48183">
        <ele>130.4</ele>
        <time>2012-07-03T12:21:40Z</time>
      </trkpt>
      <trkpt lat="43.34034" lon="-0.48173">
        <ele>130.4</ele>
        <time>2012-07-03T12:21:50Z</time>
      </trkpt>
      <trkpt lat="43.34025" lon="-0.48166">
        <ele>130.88</ele>
        <time>2012-07-03T12:21:58Z</time>
      </trkpt>
      <trkpt lat="43.34014" lon="-0.48156">
        <ele>129.92</ele>
        <time>2012-07-03T12:22:09Z</time>
      </trkpt>
      <trkpt lat="43.34003" lon="-0.48151">
        <ele>129.92</ele>
        <time>2012-07-03T12:22:19Z</time>
      </trkpt>
      <trkpt lat="43.33993" lon="-0.48152">
        <ele>129.92</ele>
        <time>2012-07-03T12:22:37Z</time>
      </trkpt>
      <trkpt lat="43.33985" lon="-0.48159">
        <ele>130.4</ele>
        <time>2012-07-03T12:22:46Z</time>
      </trkpt>
      <trkpt lat="43.33975" lon="-0.48168">
        <ele>130.88</ele>
        <time>2012-07-03T12:22:55Z</time>
      </trkpt>
      <trkpt lat="43.33967" lon="-0.48178">
        <ele>130.88</ele>
        <time>2012-07-03T12:23:04Z</time>
      </trkpt>
      <trkpt lat="43.33958" lon="-0.48187">
        <ele>130.88</ele>
        <time>2012-07-03T12:23:13Z</time>
      </trkpt>
      <trkpt lat="43.3395" lon="-0.48198">
        <ele>130.88</ele>
        <time>2012-07-03T12:23:23Z</time>
      </trkpt>
      <trkpt lat="43.33942" lon="-0.48208">
        <ele>130.88</ele>
        <time>2012-07-03T12:23:33Z</time>
      </trkpt>
      <trkpt lat="43.33936" lon="-0.48224">
        <ele>130.88</ele>
        <time>2012-07-03T12:23:43Z</time>
      </trkpt>
      <trkpt lat="43.33937" lon="-0.48236">
        <ele>130.88</ele>
        <time>2012-07-03T12:23:52Z</time>
      </trkpt>
      <trkpt lat="43.33943" lon="-0.48249">
        <ele>130.88</ele>
        <time>2012-07-03T12:24:04Z</time>
      </trkpt>
      <trkpt lat="43.3395" lon="-0.48258">
        <ele>130.4</ele>
        <time>2012-07-03T12:24:16Z</time>
      </trkpt>
      <trkpt lat="43.33955" lon="-0.48268">
        <ele>130.88</ele>
        <time>2012-07-03T12:24:26Z</time>
      </trkpt>
      <trkpt lat="43.3396" lon="-0.4828">
        <ele>130.88</ele>
        <time>2012-07-03T12:24:35Z</time>
      </trkpt>
      <trkpt lat="43.33964" lon="-0.4829">
        <ele>130.88</ele>
        <time>2012-07-03T12:24:45Z</time>
      </trkpt>
      <trkpt lat="43.33966" lon="-0.48303">
        <ele>130.88</ele>
        <time>2012-07-03T12:24:53Z</time>
      </trkpt>
      <trkpt lat="43.33968" lon="-0.48314">
        <ele>131.36</ele>
        <time>2012-07-03T12:25:02Z</time>
      </trkpt>
      <trkpt lat="43.33971" lon="-0.48326">
        <ele>131.36</ele>
        <time>2012-07-03T12:25:13Z</time>
      </trkpt>
      <trkpt lat="43.33972" lon="-0.4834">
        <ele>131.36</ele>
        <time>2012-07-03T12:25:22Z</time>
      </trkpt>
      <trkpt lat="43.33974" lon="-0.48353">
        <ele>131.36</ele>
        <time>2012-07-03T12:25:32Z</time>
      </trkpt>
      <trkpt lat="43.33975" lon="-0.48366">
        <ele>131.36</ele>
        <time>2012-07-03T12:25:41Z</time>
      </trkpt>
      <trkpt lat="43.33977" lon="-0.48379">
        <ele>131.36</ele>
        <time>2012-07-03T12:25:51Z</time>
      </trkpt>
      <trkpt lat="43.33978" lon="-0.48395">
        <ele>131.36</ele>
        <time>2012-07-03T12:26:00Z</time>
      </trkpt>
      <trkpt lat="43.3398" lon="-0.48407">
        <ele>130.88</ele>
        <time>2012-07-03T12:26:09Z</time>
      </trkpt>
      <trkpt lat="43.33983" lon="-0.48419">
        <ele>130.88</ele>
        <time>2012-07-03T12:26:18Z</time>
      </trkpt>
      <trkpt lat="43.33987" lon="-0.4843">
        <ele>130.88</ele>
        <time>2012-07-03T12:26:26Z</time>
      </trkpt>
      <trkpt lat="43.33988" lon="-0.48441">
        <ele>130.88</ele>
        <time>2012-07-03T12:26:33Z</time>
      </trkpt>
      <trkpt lat="43.33987" lon="-0.48454">
        <ele>130.88</ele>
        <time>2012-07-03T12:26:42Z</time>
      </trkpt>
      <trkpt lat="43.33987" lon="-0.48466">
        <ele>130.88</ele>
        <time>2012-07-03T12:26:51Z</time>
      </trkpt>
      <trkpt lat="43.33987" lon="-0.48481">
        <ele>130.88</ele>
        <time>2012-07-03T12:27:00Z</time>
      </trkpt>
      <trkpt lat="43.33987" lon="-0.48494">
        <ele>130.4</ele>
        <time>2012-07-03T12:27:09Z</time>
      </trkpt>
      <trkpt lat="43.33987" lon="-0.48507">
        <ele>130.4</ele>
        <time>2012-07-03T12:27:18Z</time>
      </trkpt>
      <trkpt lat="43.33991" lon="-0.48521">
        <ele>130.88</ele>
        <time>2012-07-03T12:27:27Z</time>
      </trkpt>
      <trkpt lat="43.33991" lon="-0.48533">
        <ele>130.88</ele>
        <time>2012-07-03T12:27:38Z</time>
      </trkpt>
      <trkpt lat="43.33989" lon="-0.48546">
        <ele>130.4</ele>
        <time>2012-07-03T12:27:47Z</time>
      </trkpt>
      <trkpt lat="43.33989" lon="-0.48558">
        <ele>130.88</ele>
        <time>2012-07-03T12:27:57Z</time>
      </trkpt>
      <trkpt lat="43.33987" lon="-0.48571">
        <ele>130.88</ele>
        <time>2012-07-03T12:28:08Z</time>
      </trkpt>
      <trkpt lat="43.33986" lon="-0.48584">
        <ele>130.4</ele>
        <time>2012-07-03T12:28:18Z</time>
      </trkpt>
      <trkpt lat="43.33987" lon="-0.48598">
        <ele>130.88</ele>
        <time>2012-07-03T12:28:29Z</time>
      </trkpt>
      <trkpt lat="43.33995" lon="-0.48598">
        <ele>130.88</ele>
        <time>2012-07-03T12:28:50Z</time>
      </trkpt>
      <trkpt lat="43.33993" lon="-0.4861">
        <ele>130.4</ele>
        <time>2012-07-03T12:29:24Z</time>
      </trkpt>
      <trkpt lat="43.33994" lon="-0.48622">
        <ele>129.92</ele>
        <time>2012-07-03T12:29:36Z</time>
      </trkpt>
      <trkpt lat="43.34" lon="-0.48631">
        <ele>129.92</ele>
        <time>2012-07-03T12:29:44Z</time>
      </trkpt>
      <trkpt lat="43.34006" lon="-0.4864">
        <ele>130.4</ele>
        <time>2012-07-03T12:29:57Z</time>
      </trkpt>
      <trkpt lat="43.34017" lon="-0.48663">
        <ele>129.92</ele>
        <time>2012-07-03T12:30:18Z</time>
      </trkpt>
      <trkpt lat="43.34022" lon="-0.48675">
        <ele>130.4</ele>
        <time>2012-07-03T12:30:25Z</time>
      </trkpt>
      <trkpt lat="43.34029" lon="-0.48685">
        <ele>130.4</ele>
        <time>2012-07-03T12:30:34Z</time>
      </trkpt>
      <trkpt lat="43.34033" lon="-0.48697">
        <ele>129.92</ele>
        <time>2012-07-03T12:30:44Z</time>
      </trkpt>
      <trkpt lat="43.34037" lon="-0.48709">
        <ele>129.92</ele>
        <time>2012-07-03T12:30:52Z</time>
      </trkpt>
      <trkpt lat="43.34043" lon="-0.48716">
        <ele>129.92</ele>
        <time>2012-07-03T12:31:01Z</time>
      </trkpt>
      <trkpt lat="43.34049" lon="-0.48727">
        <ele>129.92</ele>
        <time>2012-07-03T12:31:13Z</time>
      </trkpt>
      <trkpt lat="43.34056" lon="-0.48756">
        <ele>129.92</ele>
        <time>2012-07-03T12:31:34Z</time>
      </trkpt>
      <trkpt lat="43.34057" lon="-0.48772">
        <ele>129.92</ele>
        <time>2012-07-03T12:31:53Z</time>
      </trkpt>
      <trkpt lat="43.34065" lon="-0.48794">
        <ele>129.92</ele>
        <time>2012-07-03T12:32:06Z</time>
      </trkpt>
      <trkpt lat="43.34066" lon="-0.48807">
        <ele>129.92</ele>
        <time>2012-07-03T12:32:15Z</time>
      </trkpt>
      <trkpt lat="43.34069" lon="-0.48815">
        <ele>130.4</ele>
        <time>2012-07-03T12:33:48Z</time>
      </trkpt>
      <trkpt lat="43.34071" lon="-0.48826">
        <ele>128.47</ele>
        <time>2012-07-03T12:34:00Z</time>
      </trkpt>
      <trkpt lat="43.34068" lon="-0.48838">
        <ele>129.92</ele>
        <time>2012-07-03T12:34:12Z</time>
      </trkpt>
      <trkpt lat="43.34065" lon="-0.48851">
        <ele>129.92</ele>
        <time>2012-07-03T12:34:23Z</time>
      </trkpt>
      <trkpt lat="43.34062" lon="-0.48863">
        <ele>130.4</ele>
        <time>2012-07-03T12:34:31Z</time>
      </trkpt>
      <trkpt lat="43.34063" lon="-0.48876">
        <ele>130.4</ele>
        <time>2012-07-03T12:34:41Z</time>
      </trkpt>
      <trkpt lat="43.34064" lon="-0.4889">
        <ele>130.4</ele>
        <time>2012-07-03T12:34:52Z</time>
      </trkpt>
      <trkpt lat="43.34063" lon="-0.48899">
        <ele>130.4</ele>
        <time>2012-07-03T12:35:13Z</time>
      </trkpt>
      <trkpt lat="43.34067" lon="-0.4891">
        <ele>130.4</ele>
        <time>2012-07-03T12:35:21Z</time>
      </trkpt>
      <trkpt lat="43.34066" lon="-0.48921">
        <ele>129.92</ele>
        <time>2012-07-03T12:35:33Z</time>
      </trkpt>
      <trkpt lat="43.34068" lon="-0.48934">
        <ele>129.92</ele>
        <time>2012-07-03T12:35:42Z</time>
      </trkpt>
      <trkpt lat="43.34069" lon="-0.48952">
        <ele>130.4</ele>
        <time>2012-07-03T12:35:51Z</time>
      </trkpt>
      <trkpt lat="43.34071" lon="-0.48966">
        <ele>129.92</ele>
        <time>2012-07-03T12:36:00Z</time>
      </trkpt>
      <trkpt lat="43.34071" lon="-0.48979">
        <ele>130.4</ele>
        <time>2012-07-03T12:36:07Z</time>
      </trkpt>
      <trkpt lat="43.34068" lon="-0.48995">
        <ele>129.92</ele>
        <time>2012-07-03T12:36:17Z</time>
      </trkpt>
      <trkpt lat="43.34064" lon="-0.49007">
        <ele>129.92</ele>
        <time>2012-07-03T12:36:27Z</time>
      </trkpt>
      <trkpt lat="43.34058" lon="-0.49018">
        <ele>129.43</ele>
        <time>2012-07-03T12:36:35Z</time>
      </trkpt>
      <trkpt lat="43.34054" lon="-0.4903">
        <ele>129.92</ele>
        <time>2012-07-03T12:36:44Z</time>
      </trkpt>
      <trkpt lat="43.34051" lon="-0.49044">
        <ele>129.92</ele>
        <time>2012-07-03T12:36:52Z</time>
      </trkpt>
      <trkpt lat="43.34049" lon="-0.49058">
        <ele>129.43</ele>
        <time>2012-07-03T12:37:00Z</time>
      </trkpt>
      <trkpt lat="43.34053" lon="-0.49072">
        <ele>130.88</ele>
        <time>2012-07-03T12:37:08Z</time>
      </trkpt>
      <trkpt lat="43.3406" lon="-0.49081">
        <ele>130.4</ele>
        <time>2012-07-03T12:37:16Z</time>
      </trkpt>
      <trkpt lat="43.34066" lon="-0.49093">
        <ele>130.4</ele>
        <time>2012-07-03T12:37:25Z</time>
      </trkpt>
      <trkpt lat="43.34077" lon="-0.49108">
        <ele>130.4</ele>
        <time>2012-07-03T12:37:46Z</time>
      </trkpt>
      <trkpt lat="43.34096" lon="-0.49124">
        <ele>130.4</ele>
        <time>2012-07-03T12:37:58Z</time>
      </trkpt>
      <trkpt lat="43.34109" lon="-0.49125">
        <ele>129.92</ele>
        <time>2012-07-03T12:38:13Z</time>
      </trkpt>
      <trkpt lat="43.34119" lon="-0.49124">
        <ele>129.92</ele>
        <time>2012-07-03T12:38:21Z</time>
      </trkpt>
      <trkpt lat="43.34126" lon="-0.49136">
        <ele>130.4</ele>
        <time>2012-07-03T12:38:30Z</time>
      </trkpt>
      <trkpt lat="43.34132" lon="-0.49145">
        <ele>129.92</ele>
        <time>2012-07-03T12:38:39Z</time>
      </trkpt>
      <trkpt lat="43.3414" lon="-0.49153">
        <ele>130.4</ele>
        <time>2012-07-03T12:38:48Z</time>
      </trkpt>
      <trkpt lat="43.34149" lon="-0.49154">
        <ele>130.4</ele>
        <time>2012-07-03T12:39:28Z</time>
      </trkpt>
      <trkpt lat="43.34127" lon="-0.49159">
        <ele>130.4</ele>
        <time>2012-07-03T12:40:11Z</time>
      </trkpt>
      <trkpt lat="43.34118" lon="-0.49156">
        <ele>130.4</ele>
        <time>2012-07-03T12:40:22Z</time>
      </trkpt>
      <trkpt lat="43.34111" lon="-0.49151">
        <ele>130.4</ele>
        <time>2012-07-03T12:40:35Z</time>
      </trkpt>
      <trkpt lat="43.34117" lon="-0.49154">
        <ele>130.88</ele>
        <time>2012-07-03T12:41:51Z</time>
      </trkpt>
      <trkpt lat="43.34134" lon="-0.49152">
        <ele>130.88</ele>
        <time>2012-07-03T12:44:21Z</time>
      </trkpt>
      <trkpt lat="43.34141" lon="-0.49159">
        <ele>130.88</ele>
        <time>2012-07-03T12:44:28Z</time>
      </trkpt>
      <trkpt lat="43.34144" lon="-0.49172">
        <ele>131.36</ele>
        <time>2012-07-03T12:44:38Z</time>
      </trkpt>
      <trkpt lat="43.34146" lon="-0.49185">
        <ele>131.36</ele>
        <time>2012-07-03T12:44:49Z</time>
      </trkpt>
      <trkpt lat="43.34155" lon="-0.49196">
        <ele>130.88</ele>
        <time>2012-07-03T12:45:00Z</time>
      </trkpt>
      <trkpt lat="43.34167" lon="-0.49212">
        <ele>130.88</ele>
        <time>2012-07-03T12:45:11Z</time>
      </trkpt>
      <trkpt lat="43.34171" lon="-0.49223">
        <ele>130.4</ele>
        <time>2012-07-03T12:45:20Z</time>
      </trkpt>
      <trkpt lat="43.34177" lon="-0.49233">
        <ele>130.4</ele>
        <time>2012-07-03T12:45:31Z</time>
      </trkpt>
      <trkpt lat="43.34183" lon="-0.49245">
        <ele>130.4</ele>
        <time>2012-07-03T12:45:40Z</time>
      </trkpt>
      <trkpt lat="43.3419" lon="-0.49258">
        <ele>130.88</ele>
        <time>2012-07-03T12:45:49Z</time>
      </trkpt>
      <trkpt lat="43.34195" lon="-0.49269">
        <ele>131.36</ele>
        <time>2012-07-03T12:45:57Z</time>
      </trkpt>
      <trkpt lat="43.342" lon="-0.49281">
        <ele>130.88</ele>
        <time>2012-07-03T12:46:06Z</time>
      </trkpt>
      <trkpt lat="43.34204" lon="-0.49294">
        <ele>131.36</ele>
        <time>2012-07-03T12:46:14Z</time>
      </trkpt>
      <trkpt lat="43.34209" lon="-0.49304">
        <ele>130.88</ele>
        <time>2012-07-03T12:46:23Z</time>
      </trkpt>
      <trkpt lat="43.34213" lon="-0.49316">
        <ele>130.88</ele>
        <time>2012-07-03T12:46:32Z</time>
      </trkpt>
      <trkpt lat="43.34218" lon="-0.49334">
        <ele>130.4</ele>
        <time>2012-07-03T12:46:42Z</time>
      </trkpt>
      <trkpt lat="43.34222" lon="-0.49345">
        <ele>130.88</ele>
        <time>2012-07-03T12:46:50Z</time>
      </trkpt>
      <trkpt lat="43.34227" lon="-0.49357">
        <ele>130.4</ele>
        <time>2012-07-03T12:47:00Z</time>
      </trkpt>
      <trkpt lat="43.34229" lon="-0.4937">
        <ele>130.4</ele>
        <time>2012-07-03T12:47:11Z</time>
      </trkpt>
      <trkpt lat="43.34233" lon="-0.49384">
        <ele>130.4</ele>
        <time>2012-07-03T12:47:21Z</time>
      </trkpt>
      <trkpt lat="43.34237" lon="-0.49397">
        <ele>130.88</ele>
        <time>2012-07-03T12:47:28Z</time>
      </trkpt>
      <trkpt lat="43.34242" lon="-0.49408">
        <ele>130.88</ele>
        <time>2012-07-03T12:47:36Z</time>
      </trkpt>
      <trkpt lat="43.3425" lon="-0.49421">
        <ele>130.88</ele>
        <time>2012-07-03T12:47:46Z</time>
      </trkpt>
      <trkpt lat="43.34255" lon="-0.49432">
        <ele>130.4</ele>
        <time>2012-07-03T12:47:57Z</time>
      </trkpt>
      <trkpt lat="43.34266" lon="-0.49446">
        <ele>130.88</ele>
        <time>2012-07-03T12:48:09Z</time>
      </trkpt>
      <trkpt lat="43.34272" lon="-0.49456">
        <ele>130.4</ele>
        <time>2012-07-03T12:48:18Z</time>
      </trkpt>
      <trkpt lat="43.34281" lon="-0.49466">
        <ele>130.88</ele>
        <time>2012-07-03T12:48:31Z</time>
      </trkpt>
      <trkpt lat="43.34283" lon="-0.49478">
        <ele>130.88</ele>
        <time>2012-07-03T12:48:41Z</time>
      </trkpt>
      <trkpt lat="43.34285" lon="-0.49494">
        <ele>130.4</ele>
        <time>2012-07-03T12:48:52Z</time>
      </trkpt>
      <trkpt lat="43.34292" lon="-0.49512">
        <ele>130.4</ele>
        <time>2012-07-03T12:49:01Z</time>
      </trkpt>
      <trkpt lat="43.34292" lon="-0.49524">
        <ele>130.88</ele>
        <time>2012-07-03T12:49:10Z</time>
      </trkpt>
      <trkpt lat="43.34298" lon="-0.4953">
        <ele>130.4</ele>
        <time>2012-07-03T12:49:35Z</time>
      </trkpt>
      <trkpt lat="43.34307" lon="-0.49534">
        <ele>130.4</ele>
        <time>2012-07-03T12:49:46Z</time>
      </trkpt>
      <trkpt lat="43.34316" lon="-0.49537">
        <ele>130.88</ele>
        <time>2012-07-03T12:49:54Z</time>
      </trkpt>
      <trkpt lat="43.34328" lon="-0.49542">
        <ele>130.4</ele>
        <time>2012-07-03T12:50:03Z</time>
      </trkpt>
      <trkpt lat="43.34343" lon="-0.49548">
        <ele>130.4</ele>
        <time>2012-07-03T12:50:14Z</time>
      </trkpt>
      <trkpt lat="43.34359" lon="-0.49557">
        <ele>130.88</ele>
        <time>2012-07-03T12:50:24Z</time>
      </trkpt>
      <trkpt lat="43.34372" lon="-0.49562">
        <ele>130.4</ele>
        <time>2012-07-03T12:50:34Z</time>
      </trkpt>
      <trkpt lat="43.34384" lon="-0.49567">
        <ele>130.4</ele>
        <time>2012-07-03T12:50:43Z</time>
      </trkpt>
      <trkpt lat="43.34391" lon="-0.49559">
        <ele>130.4</ele>
        <time>2012-07-03T12:50:53Z</time>
      </trkpt>
      <trkpt lat="43.34397" lon="-0.49549">
        <ele>130.4</ele>
        <time>2012-07-03T12:50:59Z</time>
      </trkpt>
      <trkpt lat="43.34405" lon="-0.49543">
        <ele>130.4</ele>
        <time>2012-07-03T12:51:07Z</time>
      </trkpt>
      <trkpt lat="43.34412" lon="-0.49548">
        <ele>130.4</ele>
        <time>2012-07-03T12:51:17Z</time>
      </trkpt>
      <trkpt lat="43.34415" lon="-0.49561">
        <ele>130.4</ele>
        <time>2012-07-03T12:51:26Z</time>
      </trkpt>
      <trkpt lat="43.34419" lon="-0.49573">
        <ele>130.4</ele>
        <time>2012-07-03T12:51:35Z</time>
      </trkpt>
      <trkpt lat="43.34425" lon="-0.49582">
        <ele>130.88</ele>
        <time>2012-07-03T12:51:44Z</time>
      </trkpt>
      <trkpt lat="43.34432" lon="-0.4959">
        <ele>130.4</ele>
        <time>2012-07-03T12:51:52Z</time>
      </trkpt>
      <trkpt lat="43.34473" lon="-0.49614">
        <ele>130.4</ele>
        <time>2012-07-03T12:52:42Z</time>
      </trkpt>
      <trkpt lat="43.34498" lon="-0.49618">
        <ele>130.4</ele>
        <time>2012-07-03T12:52:55Z</time>
      </trkpt>
      <trkpt lat="43.34511" lon="-0.4964">
        <ele>129.43</ele>
        <time>2012-07-03T12:53:42Z</time>
      </trkpt>
      <trkpt lat="43.34517" lon="-0.49648">
        <ele>129.92</ele>
        <time>2012-07-03T12:53:51Z</time>
      </trkpt>
      <trkpt lat="43.34525" lon="-0.49663">
        <ele>129.92</ele>
        <time>2012-07-03T12:54:04Z</time>
      </trkpt>
      <trkpt lat="43.34532" lon="-0.49674">
        <ele>129.92</ele>
        <time>2012-07-03T12:54:13Z</time>
      </trkpt>
      <trkpt lat="43.34538" lon="-0.49683">
        <ele>129.43</ele>
        <time>2012-07-03T12:54:22Z</time>
      </trkpt>
      <trkpt lat="43.34546" lon="-0.49692">
        <ele>129.92</ele>
        <time>2012-07-03T12:54:31Z</time>
      </trkpt>
      <trkpt lat="43.34553" lon="-0.49699">
        <ele>129.92</ele>
        <time>2012-07-03T12:54:39Z</time>
      </trkpt>
      <trkpt lat="43.34559" lon="-0.49709">
        <ele>129.43</ele>
        <time>2012-07-03T12:54:47Z</time>
      </trkpt>
      <trkpt lat="43.34566" lon="-0.4972">
        <ele>129.43</ele>
        <time>2012-07-03T12:54:57Z</time>
      </trkpt>
      <trkpt lat="43.34574" lon="-0.49728">
        <ele>129.43</ele>
        <time>2012-07-03T12:55:06Z</time>
      </trkpt>
      <trkpt lat="43.34581" lon="-0.49736">
        <ele>129.43</ele>
        <time>2012-07-03T12:55:15Z</time>
      </trkpt>
      <trkpt lat="43.34587" lon="-0.49744">
        <ele>129.43</ele>
        <time>2012-07-03T12:55:24Z</time>
      </trkpt>
      <trkpt lat="43.34592" lon="-0.49755">
        <ele>129.43</ele>
        <time>2012-07-03T12:55:34Z</time>
      </trkpt>
      <trkpt lat="43.34599" lon="-0.49766">
        <ele>129.43</ele>
        <time>2012-07-03T12:55:42Z</time>
      </trkpt>
      <trkpt lat="43.34608" lon="-0.49775">
        <ele>129.43</ele>
        <time>2012-07-03T12:55:49Z</time>
      </trkpt>
      <trkpt lat="43.34614" lon="-0.49785">
        <ele>129.92</ele>
        <time>2012-07-03T12:55:57Z</time>
      </trkpt>
      <trkpt lat="43.3462" lon="-0.49798">
        <ele>129.43</ele>
        <time>2012-07-03T12:56:07Z</time>
      </trkpt>
      <trkpt lat="43.34624" lon="-0.49813">
        <ele>129.43</ele>
        <time>2012-07-03T12:56:17Z</time>
      </trkpt>
      <trkpt lat="43.34627" lon="-0.49826">
        <ele>129.43</ele>
        <time>2012-07-03T12:56:27Z</time>
      </trkpt>
      <trkpt lat="43.34631" lon="-0.4984">
        <ele>129.43</ele>
        <time>2012-07-03T12:56:37Z</time>
      </trkpt>
      <trkpt lat="43.34636" lon="-0.49853">
        <ele>129.92</ele>
        <time>2012-07-03T12:56:46Z</time>
      </trkpt>
      <trkpt lat="43.34641" lon="-0.49866">
        <ele>129.43</ele>
        <time>2012-07-03T12:56:55Z</time>
      </trkpt>
      <trkpt lat="43.34647" lon="-0.49876">
        <ele>129.92</ele>
        <time>2012-07-03T12:57:06Z</time>
      </trkpt>
      <trkpt lat="43.34652" lon="-0.49888">
        <ele>129.43</ele>
        <time>2012-07-03T12:57:16Z</time>
      </trkpt>
      <trkpt lat="43.34655" lon="-0.49901">
        <ele>129.43</ele>
        <time>2012-07-03T12:57:27Z</time>
      </trkpt>
      <trkpt lat="43.34663" lon="-0.49909">
        <ele>129.43</ele>
        <time>2012-07-03T12:57:35Z</time>
      </trkpt>
      <trkpt lat="43.34668" lon="-0.49919">
        <ele>129.92</ele>
        <time>2012-07-03T12:57:45Z</time>
      </trkpt>
      <trkpt lat="43.34674" lon="-0.49931">
        <ele>128.95</ele>
        <time>2012-07-03T12:57:54Z</time>
      </trkpt>
      <trkpt lat="43.34678" lon="-0.49942">
        <ele>129.43</ele>
        <time>2012-07-03T12:58:04Z</time>
      </trkpt>
      <trkpt lat="43.34689" lon="-0.49951">
        <ele>129.92</ele>
        <time>2012-07-03T12:58:21Z</time>
      </trkpt>
      <trkpt lat="43.34708" lon="-0.4995">
        <ele>129.92</ele>
        <time>2012-07-03T12:58:31Z</time>
      </trkpt>
      <trkpt lat="43.34719" lon="-0.4995">
        <ele>129.92</ele>
        <time>2012-07-03T12:58:38Z</time>
      </trkpt>
      <trkpt lat="43.34728" lon="-0.49951">
        <ele>129.43</ele>
        <time>2012-07-03T12:58:45Z</time>
      </trkpt>
      <trkpt lat="43.34739" lon="-0.49956">
        <ele>129.92</ele>
        <time>2012-07-03T12:58:54Z</time>
      </trkpt>
      <trkpt lat="43.34748" lon="-0.49958">
        <ele>128.95</ele>
        <time>2012-07-03T12:59:05Z</time>
      </trkpt>
      <trkpt lat="43.34757" lon="-0.49957">
        <ele>128.95</ele>
        <time>2012-07-03T12:59:14Z</time>
      </trkpt>
      <trkpt lat="43.34766" lon="-0.49958">
        <ele>128.95</ele>
        <time>2012-07-03T12:59:22Z</time>
      </trkpt>
      <trkpt lat="43.3478" lon="-0.49957">
        <ele>129.43</ele>
        <time>2012-07-03T12:59:32Z</time>
      </trkpt>
      <trkpt lat="43.34787" lon="-0.49951">
        <ele>129.43</ele>
        <time>2012-07-03T12:59:47Z</time>
      </trkpt>
      <trkpt lat="43.34805" lon="-0.4996">
        <ele>128.47</ele>
        <time>2012-07-03T13:00:31Z</time>
      </trkpt>
      <trkpt lat="43.34814" lon="-0.49967">
        <ele>129.43</ele>
        <time>2012-07-03T13:00:45Z</time>
      </trkpt>
      <trkpt lat="43.34823" lon="-0.49972">
        <ele>129.92</ele>
        <time>2012-07-03T13:00:56Z</time>
      </trkpt>
      <trkpt lat="43.3483" lon="-0.49981">
        <ele>129.92</ele>
        <time>2012-07-03T13:01:06Z</time>
      </trkpt>
      <trkpt lat="43.34838" lon="-0.49989">
        <ele>128.95</ele>
        <time>2012-07-03T13:01:17Z</time>
      </trkpt>
      <trkpt lat="43.34847" lon="-0.49994">
        <ele>129.43</ele>
        <time>2012-07-03T13:01:26Z</time>
      </trkpt>
      <trkpt lat="43.34854" lon="-0.49999">
        <ele>128.95</ele>
        <time>2012-07-03T13:01:35Z</time>
      </trkpt>
      <trkpt lat="43.34908" lon="-0.50033">
        <ele>129.43</ele>
        <time>2012-07-03T13:02:29Z</time>
      </trkpt>
      <trkpt lat="43.34917" lon="-0.50039">
        <ele>129.43</ele>
        <time>2012-07-03T13:02:37Z</time>
      </trkpt>
      <trkpt lat="43.34973" lon="-0.50072">
        <ele>128.95</ele>
        <time>2012-07-03T13:03:43Z</time>
      </trkpt>
      <trkpt lat="43.35065" lon="-0.50062">
        <ele>129.43</ele>
        <time>2012-07-03T13:05:24Z</time>
      </trkpt>
      <trkpt lat="43.35054" lon="-0.50076">
        <ele>129.43</ele>
        <time>2012-07-03T13:05:34Z</time>
      </trkpt>
      <trkpt lat="43.35063" lon="-0.50092">
        <ele>128.95</ele>
        <time>2012-07-03T13:06:06Z</time>
      </trkpt>
      <trkpt lat="43.35046" lon="-0.50094">
        <ele>129.43</ele>
        <time>2012-07-03T13:06:59Z</time>
      </trkpt>
      <trkpt lat="43.35054" lon="-0.50088">
        <ele>128.95</ele>
        <time>2012-07-03T13:07:14Z</time>
      </trkpt>
      <trkpt lat="43.3506" lon="-0.50079">
        <ele>128.95</ele>
        <time>2012-07-03T13:07:24Z</time>
      </trkpt>
      <trkpt lat="43.35067" lon="-0.5007">
        <ele>128.95</ele>
        <time>2012-07-03T13:07:34Z</time>
      </trkpt>
      <trkpt lat="43.35079" lon="-0.50092">
        <ele>128.47</ele>
        <time>2012-07-03T13:10:57Z</time>
      </trkpt>
      <trkpt lat="43.35062" lon="-0.50098">
        <ele>128.95</ele>
        <time>2012-07-03T13:11:22Z</time>
      </trkpt>
      <trkpt lat="43.35067" lon="-0.50107">
        <ele>128.47</ele>
        <time>2012-07-03T13:11:40Z</time>
      </trkpt>
      <trkpt lat="43.35076" lon="-0.50111">
        <ele>128.47</ele>
        <time>2012-07-03T13:11:54Z</time>
      </trkpt>
      <trkpt lat="43.35084" lon="-0.50118">
        <ele>128.47</ele>
        <time>2012-07-03T13:12:08Z</time>
      </trkpt>
      <trkpt lat="43.35091" lon="-0.50125">
        <ele>128.95</ele>
        <time>2012-07-03T13:12:19Z</time>
      </trkpt>
      <trkpt lat="43.35098" lon="-0.50134">
        <ele>128.95</ele>
        <time>2012-07-03T13:12:30Z</time>
      </trkpt>
      <trkpt lat="43.35104" lon="-0.50145">
        <ele>128.95</ele>
        <time>2012-07-03T13:12:42Z</time>
      </trkpt>
      <trkpt lat="43.35112" lon="-0.50153">
        <ele>128.95</ele>
        <time>2012-07-03T13:12:55Z</time>
      </trkpt>
      <trkpt lat="43.35123" lon="-0.50166">
        <ele>128.95</ele>
        <time>2012-07-03T13:13:04Z</time>
      </trkpt>
      <trkpt lat="43.3513" lon="-0.50176">
        <ele>128.95</ele>
        <time>2012-07-03T13:13:11Z</time>
      </trkpt>
      <trkpt lat="43.35138" lon="-0.50187">
        <ele>128.95</ele>
        <time>2012-07-03T13:13:18Z</time>
      </trkpt>
      <trkpt lat="43.35143" lon="-0.50197">
        <ele>128.95</ele>
        <time>2012-07-03T13:13:25Z</time>
      </trkpt>
      <trkpt lat="43.35143" lon="-0.50209">
        <ele>128.95</ele>
        <time>2012-07-03T13:13:35Z</time>
      </trkpt>
      <trkpt lat="43.35141" lon="-0.50221">
        <ele>127.99</ele>
        <time>2012-07-03T13:13:52Z</time>
      </trkpt>
      <trkpt lat="43.35141" lon="-0.50235">
        <ele>128.47</ele>
        <time>2012-07-03T13:14:00Z</time>
      </trkpt>
      <trkpt lat="43.3514" lon="-0.50249">
        <ele>128.47</ele>
        <time>2012-07-03T13:14:09Z</time>
      </trkpt>
      <trkpt lat="43.35141" lon="-0.50265">
        <ele>127.99</ele>
        <time>2012-07-03T13:14:17Z</time>
      </trkpt>
      <trkpt lat="43.35142" lon="-0.5028">
        <ele>128.47</ele>
        <time>2012-07-03T13:14:26Z</time>
      </trkpt>
      <trkpt lat="43.35148" lon="-0.50287">
        <ele>128.95</ele>
        <time>2012-07-03T13:14:42Z</time>
      </trkpt>
      <trkpt lat="43.35158" lon="-0.50294">
        <ele>128.95</ele>
        <time>2012-07-03T13:14:50Z</time>
      </trkpt>
      <trkpt lat="43.35164" lon="-0.50303">
        <ele>128.47</ele>
        <time>2012-07-03T13:14:56Z</time>
      </trkpt>
      <trkpt lat="43.35168" lon="-0.50314">
        <ele>128.47</ele>
        <time>2012-07-03T13:15:04Z</time>
      </trkpt>
      <trkpt lat="43.35172" lon="-0.50325">
        <ele>128.47</ele>
        <time>2012-07-03T13:15:12Z</time>
      </trkpt>
      <trkpt lat="43.35177" lon="-0.50335">
        <ele>127.99</ele>
        <time>2012-07-03T13:15:24Z</time>
      </trkpt>
      <trkpt lat="43.35172" lon="-0.50345">
        <ele>128.47</ele>
        <time>2012-07-03T13:15:32Z</time>
      </trkpt>
      <trkpt lat="43.35162" lon="-0.50353">
        <ele>128.47</ele>
        <time>2012-07-03T13:15:42Z</time>
      </trkpt>
      <trkpt lat="43.35153" lon="-0.50361">
        <ele>128.95</ele>
        <time>2012-07-03T13:15:52Z</time>
      </trkpt>
      <trkpt lat="43.35146" lon="-0.50369">
        <ele>128.95</ele>
        <time>2012-07-03T13:16:04Z</time>
      </trkpt>
      <trkpt lat="43.35138" lon="-0.50376">
        <ele>128.47</ele>
        <time>2012-07-03T13:16:13Z</time>
      </trkpt>
      <trkpt lat="43.35129" lon="-0.50384">
        <ele>128.47</ele>
        <time>2012-07-03T13:16:24Z</time>
      </trkpt>
      <trkpt lat="43.35121" lon="-0.50389">
        <ele>127.99</ele>
        <time>2012-07-03T13:16:33Z</time>
      </trkpt>
      <trkpt lat="43.35113" lon="-0.50398">
        <ele>128.47</ele>
        <time>2012-07-03T13:16:43Z</time>
      </trkpt>
      <trkpt lat="43.35107" lon="-0.50406">
        <ele>128.95</ele>
        <time>2012-07-03T13:16:51Z</time>
      </trkpt>
      <trkpt lat="43.35099" lon="-0.50417">
        <ele>128.47</ele>
        <time>2012-07-03T13:16:59Z</time>
      </trkpt>
      <trkpt lat="43.35089" lon="-0.50429">
        <ele>128.47</ele>
        <time>2012-07-03T13:17:08Z</time>
      </trkpt>
      <trkpt lat="43.3508" lon="-0.50442">
        <ele>127.99</ele>
        <time>2012-07-03T13:17:17Z</time>
      </trkpt>
      <trkpt lat="43.35073" lon="-0.5045">
        <ele>128.95</ele>
        <time>2012-07-03T13:17:26Z</time>
      </trkpt>
      <trkpt lat="43.35071" lon="-0.50463">
        <ele>128.95</ele>
        <time>2012-07-03T13:17:39Z</time>
      </trkpt>
      <trkpt lat="43.35067" lon="-0.50475">
        <ele>128.47</ele>
        <time>2012-07-03T13:17:48Z</time>
      </trkpt>
      <trkpt lat="43.3506" lon="-0.50486">
        <ele>127.99</ele>
        <time>2012-07-03T13:17:56Z</time>
      </trkpt>
      <trkpt lat="43.35043" lon="-0.50509">
        <ele>127.99</ele>
        <time>2012-07-03T13:18:07Z</time>
      </trkpt>
      <trkpt lat="43.35049" lon="-0.50525">
        <ele>127.99</ele>
        <time>2012-07-03T13:18:17Z</time>
      </trkpt>
      <trkpt lat="43.35059" lon="-0.50532">
        <ele>127.99</ele>
        <time>2012-07-03T13:18:27Z</time>
      </trkpt>
      <trkpt lat="43.35069" lon="-0.50537">
        <ele>128.47</ele>
        <time>2012-07-03T13:18:37Z</time>
      </trkpt>
      <trkpt lat="43.3508" lon="-0.50537">
        <ele>128.47</ele>
        <time>2012-07-03T13:18:46Z</time>
      </trkpt>
      <trkpt lat="43.35091" lon="-0.50539">
        <ele>128.47</ele>
        <time>2012-07-03T13:18:55Z</time>
      </trkpt>
      <trkpt lat="43.35101" lon="-0.50543">
        <ele>128.95</ele>
        <time>2012-07-03T13:19:04Z</time>
      </trkpt>
      <trkpt lat="43.3511" lon="-0.50544">
        <ele>128.95</ele>
        <time>2012-07-03T13:19:14Z</time>
      </trkpt>
      <trkpt lat="43.35119" lon="-0.50547">
        <ele>128.95</ele>
        <time>2012-07-03T13:19:23Z</time>
      </trkpt>
      <trkpt lat="43.35127" lon="-0.50551">
        <ele>128.95</ele>
        <time>2012-07-03T13:19:32Z</time>
      </trkpt>
      <trkpt lat="43.35137" lon="-0.50556">
        <ele>128.47</ele>
        <time>2012-07-03T13:19:42Z</time>
      </trkpt>
      <trkpt lat="43.35146" lon="-0.5056">
        <ele>128.95</ele>
        <time>2012-07-03T13:19:51Z</time>
      </trkpt>
      <trkpt lat="43.35153" lon="-0.50569">
        <ele>128.95</ele>
        <time>2012-07-03T13:20:01Z</time>
      </trkpt>
      <trkpt lat="43.35159" lon="-0.50578">
        <ele>128.95</ele>
        <time>2012-07-03T13:20:14Z</time>
      </trkpt>
      <trkpt lat="43.35165" lon="-0.50592">
        <ele>127.99</ele>
        <time>2012-07-03T13:20:22Z</time>
      </trkpt>
      <trkpt lat="43.35172" lon="-0.50601">
        <ele>128.47</ele>
        <time>2012-07-03T13:20:30Z</time>
      </trkpt>
      <trkpt lat="43.35179" lon="-0.5061">
        <ele>128.47</ele>
        <time>2012-07-03T13:20:38Z</time>
      </trkpt>
      <trkpt lat="43.35184" lon="-0.50621">
        <ele>128.47</ele>
        <time>2012-07-03T13:20:46Z</time>
      </trkpt>
      <trkpt lat="43.35189" lon="-0.50634">
        <ele>128.95</ele>
        <time>2012-07-03T13:20:55Z</time>
      </trkpt>
      <trkpt lat="43.35192" lon="-0.50645">
        <ele>128.47</ele>
        <time>2012-07-03T13:21:04Z</time>
      </trkpt>
      <trkpt lat="43.35193" lon="-0.50657">
        <ele>128.95</ele>
        <time>2012-07-03T13:21:12Z</time>
      </trkpt>
      <trkpt lat="43.35193" lon="-0.50669">
        <ele>128.95</ele>
        <time>2012-07-03T13:21:20Z</time>
      </trkpt>
      <trkpt lat="43.35195" lon="-0.50683">
        <ele>128.47</ele>
        <time>2012-07-03T13:21:29Z</time>
      </trkpt>
      <trkpt lat="43.35197" lon="-0.50696">
        <ele>128.95</ele>
        <time>2012-07-03T13:21:37Z</time>
      </trkpt>
      <trkpt lat="43.35197" lon="-0.50709">
        <ele>128.47</ele>
        <time>2012-07-03T13:21:45Z</time>
      </trkpt>
      <trkpt lat="43.35202" lon="-0.5072">
        <ele>128.47</ele>
        <time>2012-07-03T13:21:53Z</time>
      </trkpt>
      <trkpt lat="43.3521" lon="-0.50721">
        <ele>128.47</ele>
        <time>2012-07-03T13:22:11Z</time>
      </trkpt>
      <trkpt lat="43.35218" lon="-0.50729">
        <ele>128.47</ele>
        <time>2012-07-03T13:22:23Z</time>
      </trkpt>
      <trkpt lat="43.35231" lon="-0.50737">
        <ele>128.47</ele>
        <time>2012-07-03T13:22:31Z</time>
      </trkpt>
      <trkpt lat="43.35238" lon="-0.50744">
        <ele>128.47</ele>
        <time>2012-07-03T13:22:40Z</time>
      </trkpt>
      <trkpt lat="43.35244" lon="-0.50753">
        <ele>128.95</ele>
        <time>2012-07-03T13:22:56Z</time>
      </trkpt>
      <trkpt lat="43.35252" lon="-0.50764">
        <ele>128.47</ele>
        <time>2012-07-03T13:23:08Z</time>
      </trkpt>
      <trkpt lat="43.35257" lon="-0.50775">
        <ele>128.95</ele>
        <time>2012-07-03T13:23:17Z</time>
      </trkpt>
      <trkpt lat="43.35264" lon="-0.50786">
        <ele>128.47</ele>
        <time>2012-07-03T13:23:27Z</time>
      </trkpt>
      <trkpt lat="43.35273" lon="-0.50794">
        <ele>128.47</ele>
        <time>2012-07-03T13:23:36Z</time>
      </trkpt>
      <trkpt lat="43.35281" lon="-0.508">
        <ele>127.99</ele>
        <time>2012-07-03T13:23:45Z</time>
      </trkpt>
      <trkpt lat="43.35288" lon="-0.50809">
        <ele>127.99</ele>
        <time>2012-07-03T13:23:54Z</time>
      </trkpt>
      <trkpt lat="43.35295" lon="-0.50818">
        <ele>127.99</ele>
        <time>2012-07-03T13:24:05Z</time>
      </trkpt>
      <trkpt lat="43.35304" lon="-0.50828">
        <ele>127.51</ele>
        <time>2012-07-03T13:24:14Z</time>
      </trkpt>
      <trkpt lat="43.35313" lon="-0.50835">
        <ele>127.99</ele>
        <time>2012-07-03T13:24:23Z</time>
      </trkpt>
      <trkpt lat="43.3532" lon="-0.50844">
        <ele>127.51</ele>
        <time>2012-07-03T13:24:33Z</time>
      </trkpt>
      <trkpt lat="43.35326" lon="-0.50854">
        <ele>127.51</ele>
        <time>2012-07-03T13:24:43Z</time>
      </trkpt>
      <trkpt lat="43.35334" lon="-0.50866">
        <ele>127.51</ele>
        <time>2012-07-03T13:24:52Z</time>
      </trkpt>
      <trkpt lat="43.3534" lon="-0.50882">
        <ele>127.99</ele>
        <time>2012-07-03T13:25:03Z</time>
      </trkpt>
      <trkpt lat="43.35342" lon="-0.50894">
        <ele>127.99</ele>
        <time>2012-07-03T13:25:14Z</time>
      </trkpt>
      <trkpt lat="43.35346" lon="-0.50907">
        <ele>127.51</ele>
        <time>2012-07-03T13:25:23Z</time>
      </trkpt>
      <trkpt lat="43.35348" lon="-0.5092">
        <ele>127.03</ele>
        <time>2012-07-03T13:25:32Z</time>
      </trkpt>
      <trkpt lat="43.35351" lon="-0.50931">
        <ele>127.51</ele>
        <time>2012-07-03T13:25:40Z</time>
      </trkpt>
      <trkpt lat="43.35354" lon="-0.50944">
        <ele>127.99</ele>
        <time>2012-07-03T13:25:50Z</time>
      </trkpt>
      <trkpt lat="43.35359" lon="-0.50963">
        <ele>127.99</ele>
        <time>2012-07-03T13:26:00Z</time>
      </trkpt>
      <trkpt lat="43.3536" lon="-0.50977">
        <ele>127.51</ele>
        <time>2012-07-03T13:26:10Z</time>
      </trkpt>
      <trkpt lat="43.35367" lon="-0.50986">
        <ele>127.99</ele>
        <time>2012-07-03T13:26:19Z</time>
      </trkpt>
      <trkpt lat="43.35372" lon="-0.50998">
        <ele>128.47</ele>
        <time>2012-07-03T13:26:29Z</time>
      </trkpt>
      <trkpt lat="43.35377" lon="-0.51009">
        <ele>128.47</ele>
        <time>2012-07-03T13:26:39Z</time>
      </trkpt>
      <trkpt lat="43.35382" lon="-0.51017">
        <ele>127.51</ele>
        <time>2012-07-03T13:29:01Z</time>
      </trkpt>
      <trkpt lat="43.35387" lon="-0.51011">
        <ele>129.92</ele>
        <time>2012-07-03T13:41:24Z</time>
      </trkpt>
      <trkpt lat="43.35386" lon="-0.51016">
        <ele>130.88</ele>
        <time>2012-07-03T13:45:55Z</time>
      </trkpt>
      <trkpt lat="43.35395" lon="-0.51016">
        <ele>130.88</ele>
        <time>2012-07-03T13:46:03Z</time>
      </trkpt>
      <trkpt lat="43.35385" lon="-0.51012">
        <ele>130.88</ele>
        <time>2012-07-03T13:48:04Z</time>
      </trkpt>
      <trkpt lat="43.35377" lon="-0.51016">
        <ele>130.88</ele>
        <time>2012-07-03T13:48:21Z</time>
      </trkpt>
      <trkpt lat="43.35387" lon="-0.50993">
        <ele>131.36</ele>
        <time>2012-07-03T13:50:40Z</time>
      </trkpt>
      <trkpt lat="43.35386" lon="-0.50976">
        <ele>131.36</ele>
        <time>2012-07-03T13:50:57Z</time>
      </trkpt>
      <trkpt lat="43.35381" lon="-0.50967">
        <ele>131.84</ele>
        <time>2012-07-03T13:51:07Z</time>
      </trkpt>
      <trkpt lat="43.35377" lon="-0.50951">
        <ele>131.84</ele>
        <time>2012-07-03T13:51:31Z</time>
      </trkpt>
      <trkpt lat="43.35393" lon="-0.51013">
        <ele>131.36</ele>
        <time>2012-07-03T13:53:07Z</time>
      </trkpt>
      <trkpt lat="43.35387" lon="-0.51015">
        <ele>131.36</ele>
        <time>2012-07-03T13:55:09Z</time>
      </trkpt>
      <trkpt lat="43.35381" lon="-0.50995">
        <ele>131.84</ele>
        <time>2012-07-03T13:55:57Z</time>
      </trkpt>
      <trkpt lat="43.35374" lon="-0.50986">
        <ele>131.84</ele>
        <time>2012-07-03T13:56:13Z</time>
      </trkpt>
      <trkpt lat="43.35378" lon="-0.50985">
        <ele>131.84</ele>
        <time>2012-07-03T13:57:05Z</time>
      </trkpt>
      <trkpt lat="43.35389" lon="-0.51024">
        <ele>131.84</ele>
        <time>2012-07-03T13:58:06Z</time>
      </trkpt>
      <trkpt lat="43.35384" lon="-0.51013">
        <ele>131.84</ele>
        <time>2012-07-03T13:58:25Z</time>
      </trkpt>
      <trkpt lat="43.35377" lon="-0.51025">
        <ele>131.36</ele>
        <time>2012-07-03T13:59:04Z</time>
      </trkpt>
      <trkpt lat="43.35384" lon="-0.51009">
        <ele>131.36</ele>
        <time>2012-07-03T14:00:18Z</time>
      </trkpt>
      <trkpt lat="43.35384" lon="-0.51009">
        <ele>131.36</ele>
        <time>2012-07-03T14:01:36Z</time>
      </trkpt>
      <trkpt lat="43.35384" lon="-0.51022">
        <ele>131.36</ele>
        <time>2012-07-03T14:01:43Z</time>
      </trkpt>
      <trkpt lat="43.35384" lon="-0.51036">
        <ele>131.84</ele>
        <time>2012-07-03T14:01:50Z</time>
      </trkpt>
      <trkpt lat="43.35384" lon="-0.5105">
        <ele>131.36</ele>
        <time>2012-07-03T14:01:57Z</time>
      </trkpt>
      <trkpt lat="43.35384" lon="-0.51063">
        <ele>131.84</ele>
        <time>2012-07-03T14:02:04Z</time>
      </trkpt>
      <trkpt lat="43.35385" lon="-0.51016">
        <ele>131.84</ele>
        <time>2012-07-03T14:02:21Z</time>
      </trkpt>
      <trkpt lat="43.35385" lon="-0.51006">
        <ele>131.36</ele>
        <time>2012-07-03T14:02:40Z</time>
      </trkpt>
      <trkpt lat="43.35386" lon="-0.51009">
        <ele>131.84</ele>
        <time>2012-07-03T14:03:11Z</time>
      </trkpt>
      <trkpt lat="43.35378" lon="-0.51003">
        <ele>131.36</ele>
        <time>2012-07-03T14:03:27Z</time>
      </trkpt>
      <trkpt lat="43.3537" lon="-0.50994">
        <ele>131.36</ele>
        <time>2012-07-03T14:03:41Z</time>
      </trkpt>
      <trkpt lat="43.35379" lon="-0.51009">
        <ele>131.36</ele>
        <time>2012-07-03T14:04:31Z</time>
      </trkpt>
      <trkpt lat="43.35387" lon="-0.51006">
        <ele>131.36</ele>
        <time>2012-07-03T14:05:00Z</time>
      </trkpt>
      <trkpt lat="43.35387" lon="-0.50999">
        <ele>131.84</ele>
        <time>2012-07-03T14:05:38Z</time>
      </trkpt>
      <trkpt lat="43.35387" lon="-0.51005">
        <ele>131.36</ele>
        <time>2012-07-03T14:06:00Z</time>
      </trkpt>
      <trkpt lat="43.35385" lon="-0.50992">
        <ele>131.36</ele>
        <time>2012-07-03T14:06:19Z</time>
      </trkpt>
      <trkpt lat="43.35379" lon="-0.50981">
        <ele>130.88</ele>
        <time>2012-07-03T14:06:33Z</time>
      </trkpt>
      <trkpt lat="43.35375" lon="-0.50969">
        <ele>130.88</ele>
        <time>2012-07-03T14:06:43Z</time>
      </trkpt>
      <trkpt lat="43.35375" lon="-0.50955">
        <ele>131.36</ele>
        <time>2012-07-03T14:06:53Z</time>
      </trkpt>
      <trkpt lat="43.35375" lon="-0.50943">
        <ele>131.36</ele>
        <time>2012-07-03T14:07:04Z</time>
      </trkpt>
      <trkpt lat="43.35371" lon="-0.5093">
        <ele>131.36</ele>
        <time>2012-07-03T14:07:16Z</time>
      </trkpt>
      <trkpt lat="43.35369" lon="-0.50916">
        <ele>131.36</ele>
        <time>2012-07-03T14:07:27Z</time>
      </trkpt>
      <trkpt lat="43.35366" lon="-0.50901">
        <ele>131.84</ele>
        <time>2012-07-03T14:07:37Z</time>
      </trkpt>
      <trkpt lat="43.35363" lon="-0.50888">
        <ele>131.36</ele>
        <time>2012-07-03T14:07:48Z</time>
      </trkpt>
      <trkpt lat="43.35358" lon="-0.50877">
        <ele>131.36</ele>
        <time>2012-07-03T14:07:58Z</time>
      </trkpt>
      <trkpt lat="43.35351" lon="-0.50867">
        <ele>131.36</ele>
        <time>2012-07-03T14:08:08Z</time>
      </trkpt>
      <trkpt lat="43.35344" lon="-0.50857">
        <ele>131.36</ele>
        <time>2012-07-03T14:08:19Z</time>
      </trkpt>
      <trkpt lat="43.35339" lon="-0.50851">
        <ele>131.84</ele>
        <time>2012-07-03T14:09:00Z</time>
      </trkpt>
      <trkpt lat="43.35331" lon="-0.50841">
        <ele>131.36</ele>
        <time>2012-07-03T14:09:12Z</time>
      </trkpt>
      <trkpt lat="43.35325" lon="-0.50831">
        <ele>131.36</ele>
        <time>2012-07-03T14:09:21Z</time>
      </trkpt>
      <trkpt lat="43.35316" lon="-0.5082">
        <ele>131.84</ele>
        <time>2012-07-03T14:09:31Z</time>
      </trkpt>
      <trkpt lat="43.35309" lon="-0.50811">
        <ele>131.36</ele>
        <time>2012-07-03T14:09:40Z</time>
      </trkpt>
      <trkpt lat="43.35303" lon="-0.508">
        <ele>131.84</ele>
        <time>2012-07-03T14:09:50Z</time>
      </trkpt>
      <trkpt lat="43.35296" lon="-0.5079">
        <ele>131.84</ele>
        <time>2012-07-03T14:09:59Z</time>
      </trkpt>
      <trkpt lat="43.35288" lon="-0.50782">
        <ele>131.84</ele>
        <time>2012-07-03T14:10:08Z</time>
      </trkpt>
      <trkpt lat="43.35279" lon="-0.50774">
        <ele>131.84</ele>
        <time>2012-07-03T14:10:17Z</time>
      </trkpt>
      <trkpt lat="43.35269" lon="-0.50767">
        <ele>131.84</ele>
        <time>2012-07-03T14:10:26Z</time>
      </trkpt>
      <trkpt lat="43.35259" lon="-0.50761">
        <ele>132.32</ele>
        <time>2012-07-03T14:10:35Z</time>
      </trkpt>
      <trkpt lat="43.35253" lon="-0.50752">
        <ele>132.32</ele>
        <time>2012-07-03T14:10:45Z</time>
      </trkpt>
      <trkpt lat="43.35247" lon="-0.50742">
        <ele>132.8</ele>
        <time>2012-07-03T14:10:55Z</time>
      </trkpt>
      <trkpt lat="43.35248" lon="-0.50733">
        <ele>131.84</ele>
        <time>2012-07-03T14:11:07Z</time>
      </trkpt>
      <trkpt lat="43.35257" lon="-0.50727">
        <ele>131.36</ele>
        <time>2012-07-03T14:11:18Z</time>
      </trkpt>
      <trkpt lat="43.35263" lon="-0.50721">
        <ele>131.36</ele>
        <time>2012-07-03T14:11:27Z</time>
      </trkpt>
      <trkpt lat="43.35271" lon="-0.50714">
        <ele>131.36</ele>
        <time>2012-07-03T14:11:37Z</time>
      </trkpt>
      <trkpt lat="43.35278" lon="-0.50703">
        <ele>131.36</ele>
        <time>2012-07-03T14:11:47Z</time>
      </trkpt>
      <trkpt lat="43.35285" lon="-0.50694">
        <ele>131.36</ele>
        <time>2012-07-03T14:11:55Z</time>
      </trkpt>
      <trkpt lat="43.35292" lon="-0.50686">
        <ele>131.36</ele>
        <time>2012-07-03T14:12:04Z</time>
      </trkpt>
      <trkpt lat="43.35295" lon="-0.50673">
        <ele>131.36</ele>
        <time>2012-07-03T14:12:14Z</time>
      </trkpt>
      <trkpt lat="43.35297" lon="-0.5066">
        <ele>130.88</ele>
        <time>2012-07-03T14:12:24Z</time>
      </trkpt>
      <trkpt lat="43.35304" lon="-0.5065">
        <ele>131.36</ele>
        <time>2012-07-03T14:12:31Z</time>
      </trkpt>
      <trkpt lat="43.3531" lon="-0.50636">
        <ele>130.88</ele>
        <time>2012-07-03T14:12:41Z</time>
      </trkpt>
      <trkpt lat="43.35313" lon="-0.50623">
        <ele>131.36</ele>
        <time>2012-07-03T14:12:50Z</time>
      </trkpt>
      <trkpt lat="43.35315" lon="-0.50611">
        <ele>130.88</ele>
        <time>2012-07-03T14:12:59Z</time>
      </trkpt>
      <trkpt lat="43.3532" lon="-0.506">
        <ele>131.36</ele>
        <time>2012-07-03T14:13:08Z</time>
      </trkpt>
      <trkpt lat="43.35321" lon="-0.50586">
        <ele>131.36</ele>
        <time>2012-07-03T14:13:18Z</time>
      </trkpt>
      <trkpt lat="43.3532" lon="-0.50569">
        <ele>131.36</ele>
        <time>2012-07-03T14:13:28Z</time>
      </trkpt>
      <trkpt lat="43.35315" lon="-0.50558">
        <ele>131.36</ele>
        <time>2012-07-03T14:13:37Z</time>
      </trkpt>
      <trkpt lat="43.35316" lon="-0.50547">
        <ele>131.84</ele>
        <time>2012-07-03T14:13:47Z</time>
      </trkpt>
      <trkpt lat="43.35314" lon="-0.50535">
        <ele>131.36</ele>
        <time>2012-07-03T14:13:58Z</time>
      </trkpt>
      <trkpt lat="43.35314" lon="-0.50522">
        <ele>131.84</ele>
        <time>2012-07-03T14:14:07Z</time>
      </trkpt>
      <trkpt lat="43.35312" lon="-0.50509">
        <ele>131.36</ele>
        <time>2012-07-03T14:14:14Z</time>
      </trkpt>
      <trkpt lat="43.35308" lon="-0.50497">
        <ele>131.36</ele>
        <time>2012-07-03T14:14:24Z</time>
      </trkpt>
      <trkpt lat="43.35302" lon="-0.50483">
        <ele>131.84</ele>
        <time>2012-07-03T14:14:34Z</time>
      </trkpt>
      <trkpt lat="43.35294" lon="-0.50475">
        <ele>131.36</ele>
        <time>2012-07-03T14:14:43Z</time>
      </trkpt>
      <trkpt lat="43.35289" lon="-0.50465">
        <ele>131.36</ele>
        <time>2012-07-03T14:14:54Z</time>
      </trkpt>
      <trkpt lat="43.35288" lon="-0.50452">
        <ele>131.84</ele>
        <time>2012-07-03T14:15:04Z</time>
      </trkpt>
      <trkpt lat="43.35285" lon="-0.50438">
        <ele>131.84</ele>
        <time>2012-07-03T14:15:14Z</time>
      </trkpt>
      <trkpt lat="43.35284" lon="-0.50425">
        <ele>131.84</ele>
        <time>2012-07-03T14:15:24Z</time>
      </trkpt>
      <trkpt lat="43.35281" lon="-0.50413">
        <ele>131.84</ele>
        <time>2012-07-03T14:15:34Z</time>
      </trkpt>
      <trkpt lat="43.35275" lon="-0.504">
        <ele>131.84</ele>
        <time>2012-07-03T14:15:42Z</time>
      </trkpt>
      <trkpt lat="43.35272" lon="-0.50389">
        <ele>131.36</ele>
        <time>2012-07-03T14:15:52Z</time>
      </trkpt>
      <trkpt lat="43.35273" lon="-0.50375">
        <ele>131.36</ele>
        <time>2012-07-03T14:16:02Z</time>
      </trkpt>
      <trkpt lat="43.3527" lon="-0.50362">
        <ele>131.36</ele>
        <time>2012-07-03T14:16:12Z</time>
      </trkpt>
      <trkpt lat="43.35261" lon="-0.5035">
        <ele>131.36</ele>
        <time>2012-07-03T14:16:22Z</time>
      </trkpt>
      <trkpt lat="43.35252" lon="-0.50345">
        <ele>131.36</ele>
        <time>2012-07-03T14:16:31Z</time>
      </trkpt>
      <trkpt lat="43.35242" lon="-0.50342">
        <ele>131.84</ele>
        <time>2012-07-03T14:16:40Z</time>
      </trkpt>
      <trkpt lat="43.35233" lon="-0.50336">
        <ele>131.84</ele>
        <time>2012-07-03T14:16:53Z</time>
      </trkpt>
      <trkpt lat="43.3523" lon="-0.50322">
        <ele>131.84</ele>
        <time>2012-07-03T14:17:02Z</time>
      </trkpt>
      <trkpt lat="43.35234" lon="-0.50311">
        <ele>131.36</ele>
        <time>2012-07-03T14:17:12Z</time>
      </trkpt>
      <trkpt lat="43.35239" lon="-0.50299">
        <ele>131.36</ele>
        <time>2012-07-03T14:17:22Z</time>
      </trkpt>
      <trkpt lat="43.35243" lon="-0.50285">
        <ele>131.84</ele>
        <time>2012-07-03T14:17:32Z</time>
      </trkpt>
      <trkpt lat="43.35244" lon="-0.50271">
        <ele>131.84</ele>
        <time>2012-07-03T14:17:41Z</time>
      </trkpt>
      <trkpt lat="43.35238" lon="-0.5026">
        <ele>131.84</ele>
        <time>2012-07-03T14:17:50Z</time>
      </trkpt>
      <trkpt lat="43.35234" lon="-0.50248">
        <ele>131.84</ele>
        <time>2012-07-03T14:18:02Z</time>
      </trkpt>
      <trkpt lat="43.35231" lon="-0.50236">
        <ele>131.84</ele>
        <time>2012-07-03T14:18:12Z</time>
      </trkpt>
      <trkpt lat="43.35227" lon="-0.50223">
        <ele>131.36</ele>
        <time>2012-07-03T14:18:20Z</time>
      </trkpt>
      <trkpt lat="43.35224" lon="-0.50212">
        <ele>131.36</ele>
        <time>2012-07-03T14:18:29Z</time>
      </trkpt>
      <trkpt lat="43.3522" lon="-0.50198">
        <ele>131.84</ele>
        <time>2012-07-03T14:18:42Z</time>
      </trkpt>
      <trkpt lat="43.35218" lon="-0.50184">
        <ele>132.32</ele>
        <time>2012-07-03T14:18:55Z</time>
      </trkpt>
      <trkpt lat="43.35217" lon="-0.50171">
        <ele>132.32</ele>
        <time>2012-07-03T14:19:05Z</time>
      </trkpt>
      <trkpt lat="43.35212" lon="-0.5016">
        <ele>132.8</ele>
        <time>2012-07-03T14:19:18Z</time>
      </trkpt>
      <trkpt lat="43.35206" lon="-0.50146">
        <ele>133.28</ele>
        <time>2012-07-03T14:19:29Z</time>
      </trkpt>
      <trkpt lat="43.35198" lon="-0.50138">
        <ele>133.28</ele>
        <time>2012-07-03T14:19:39Z</time>
      </trkpt>
      <trkpt lat="43.35192" lon="-0.50145">
        <ele>133.28</ele>
        <time>2012-07-03T14:20:04Z</time>
      </trkpt>
      <trkpt lat="43.35185" lon="-0.50133">
        <ele>133.28</ele>
        <time>2012-07-03T14:22:03Z</time>
      </trkpt>
      <trkpt lat="43.35184" lon="-0.50147">
        <ele>133.28</ele>
        <time>2012-07-03T14:22:07Z</time>
      </trkpt>
      <trkpt lat="43.35187" lon="-0.50164">
        <ele>133.28</ele>
        <time>2012-07-03T14:22:11Z</time>
      </trkpt>
      <trkpt lat="43.35189" lon="-0.50174">
        <ele>132.8</ele>
        <time>2012-07-03T14:22:14Z</time>
      </trkpt>
      <trkpt lat="43.35191" lon="-0.50189">
        <ele>133.28</ele>
        <time>2012-07-03T14:22:18Z</time>
      </trkpt>
      <trkpt lat="43.35191" lon="-0.50203">
        <ele>133.76</ele>
        <time>2012-07-03T14:22:22Z</time>
      </trkpt>
      <trkpt lat="43.35191" lon="-0.50217">
        <ele>133.28</ele>
        <time>2012-07-03T14:22:26Z</time>
      </trkpt>
      <trkpt lat="43.35191" lon="-0.5023">
        <ele>133.28</ele>
        <time>2012-07-03T14:22:30Z</time>
      </trkpt>
      <trkpt lat="43.3519" lon="-0.50242">
        <ele>132.8</ele>
        <time>2012-07-03T14:22:34Z</time>
      </trkpt>
      <trkpt lat="43.35189" lon="-0.50253">
        <ele>133.28</ele>
        <time>2012-07-03T14:22:38Z</time>
      </trkpt>
      <trkpt lat="43.35188" lon="-0.50264">
        <ele>132.32</ele>
        <time>2012-07-03T14:22:43Z</time>
      </trkpt>
      <trkpt lat="43.35185" lon="-0.50274">
        <ele>132.32</ele>
        <time>2012-07-03T14:22:48Z</time>
      </trkpt>
      <trkpt lat="43.35178" lon="-0.50276">
        <ele>131.84</ele>
        <time>2012-07-03T14:22:54Z</time>
      </trkpt>
      <trkpt lat="43.35142" lon="-0.50192">
        <ele>130.4</ele>
        <time>2012-07-03T14:23:07Z</time>
      </trkpt>
      <trkpt lat="43.35133" lon="-0.50174">
        <ele>130.4</ele>
        <time>2012-07-03T14:23:15Z</time>
      </trkpt>
      <trkpt lat="43.35125" lon="-0.50164">
        <ele>130.4</ele>
        <time>2012-07-03T14:23:22Z</time>
      </trkpt>
      <trkpt lat="43.35123" lon="-0.50157">
        <ele>130.4</ele>
        <time>2012-07-03T14:23:30Z</time>
      </trkpt>
      <trkpt lat="43.35119" lon="-0.50147">
        <ele>130.4</ele>
        <time>2012-07-03T14:23:45Z</time>
      </trkpt>
      <trkpt lat="43.35112" lon="-0.50146">
        <ele>130.4</ele>
        <time>2012-07-03T14:23:55Z</time>
      </trkpt>
      <trkpt lat="43.35104" lon="-0.50145">
        <ele>130.4</ele>
        <time>2012-07-03T14:24:09Z</time>
      </trkpt>
      <trkpt lat="43.35095" lon="-0.5014">
        <ele>129.43</ele>
        <time>2012-07-03T14:24:26Z</time>
      </trkpt>
      <trkpt lat="43.35087" lon="-0.50132">
        <ele>129.43</ele>
        <time>2012-07-03T14:24:44Z</time>
      </trkpt>
      <trkpt lat="43.35079" lon="-0.50128">
        <ele>128.95</ele>
        <time>2012-07-03T14:24:59Z</time>
      </trkpt>
      <trkpt lat="43.3507" lon="-0.50128">
        <ele>128.95</ele>
        <time>2012-07-03T14:25:09Z</time>
      </trkpt>
      <trkpt lat="43.35062" lon="-0.50119">
        <ele>128.95</ele>
        <time>2012-07-03T14:25:20Z</time>
      </trkpt>
      <trkpt lat="43.35053" lon="-0.50113">
        <ele>129.92</ele>
        <time>2012-07-03T14:25:27Z</time>
      </trkpt>
      <trkpt lat="43.35044" lon="-0.50107">
        <ele>129.43</ele>
        <time>2012-07-03T14:25:35Z</time>
      </trkpt>
      <trkpt lat="43.35035" lon="-0.50103">
        <ele>128.95</ele>
        <time>2012-07-03T14:25:42Z</time>
      </trkpt>
      <trkpt lat="43.35023" lon="-0.501">
        <ele>128.95</ele>
        <time>2012-07-03T14:25:52Z</time>
      </trkpt>
      <trkpt lat="43.35012" lon="-0.50099">
        <ele>128.95</ele>
        <time>2012-07-03T14:26:02Z</time>
      </trkpt>
      <trkpt lat="43.35001" lon="-0.50091">
        <ele>128.95</ele>
        <time>2012-07-03T14:26:11Z</time>
      </trkpt>
      <trkpt lat="43.34992" lon="-0.50089">
        <ele>128.95</ele>
        <time>2012-07-03T14:26:20Z</time>
      </trkpt>
      <trkpt lat="43.34979" lon="-0.5008">
        <ele>128.95</ele>
        <time>2012-07-03T14:26:28Z</time>
      </trkpt>
      <trkpt lat="43.34962" lon="-0.50059">
        <ele>128.95</ele>
        <time>2012-07-03T14:26:39Z</time>
      </trkpt>
      <trkpt lat="43.34951" lon="-0.5005">
        <ele>129.43</ele>
        <time>2012-07-03T14:26:46Z</time>
      </trkpt>
      <trkpt lat="43.34941" lon="-0.5004">
        <ele>128.95</ele>
        <time>2012-07-03T14:26:53Z</time>
      </trkpt>
      <trkpt lat="43.34934" lon="-0.50033">
        <ele>128.95</ele>
        <time>2012-07-03T14:27:03Z</time>
      </trkpt>
      <trkpt lat="43.34927" lon="-0.50027">
        <ele>128.95</ele>
        <time>2012-07-03T14:27:11Z</time>
      </trkpt>
      <trkpt lat="43.34917" lon="-0.50023">
        <ele>128.95</ele>
        <time>2012-07-03T14:27:20Z</time>
      </trkpt>
      <trkpt lat="43.34908" lon="-0.50017">
        <ele>129.43</ele>
        <time>2012-07-03T14:27:28Z</time>
      </trkpt>
      <trkpt lat="43.34899" lon="-0.50015">
        <ele>129.43</ele>
        <time>2012-07-03T14:27:39Z</time>
      </trkpt>
      <trkpt lat="43.3489" lon="-0.50011">
        <ele>129.43</ele>
        <time>2012-07-03T14:27:46Z</time>
      </trkpt>
      <trkpt lat="43.34882" lon="-0.50005">
        <ele>128.95</ele>
        <time>2012-07-03T14:27:56Z</time>
      </trkpt>
      <trkpt lat="43.34873" lon="-0.5">
        <ele>129.43</ele>
        <time>2012-07-03T14:28:03Z</time>
      </trkpt>
      <trkpt lat="43.34864" lon="-0.49993">
        <ele>128.47</ele>
        <time>2012-07-03T14:28:11Z</time>
      </trkpt>
      <trkpt lat="43.34854" lon="-0.49986">
        <ele>129.43</ele>
        <time>2012-07-03T14:28:20Z</time>
      </trkpt>
      <trkpt lat="43.34847" lon="-0.49978">
        <ele>129.43</ele>
        <time>2012-07-03T14:28:30Z</time>
      </trkpt>
      <trkpt lat="43.34841" lon="-0.49968">
        <ele>129.43</ele>
        <time>2012-07-03T14:28:39Z</time>
      </trkpt>
      <trkpt lat="43.34833" lon="-0.49968">
        <ele>129.43</ele>
        <time>2012-07-03T14:28:49Z</time>
      </trkpt>
      <trkpt lat="43.34826" lon="-0.4996">
        <ele>128.47</ele>
        <time>2012-07-03T14:29:05Z</time>
      </trkpt>
      <trkpt lat="43.34818" lon="-0.49955">
        <ele>127.99</ele>
        <time>2012-07-03T14:29:15Z</time>
      </trkpt>
      <trkpt lat="43.34809" lon="-0.49951">
        <ele>128.95</ele>
        <time>2012-07-03T14:29:25Z</time>
      </trkpt>
      <trkpt lat="43.34799" lon="-0.4995">
        <ele>128.95</ele>
        <time>2012-07-03T14:29:36Z</time>
      </trkpt>
      <trkpt lat="43.34789" lon="-0.49954">
        <ele>128.95</ele>
        <time>2012-07-03T14:29:44Z</time>
      </trkpt>
      <trkpt lat="43.3478" lon="-0.49958">
        <ele>128.95</ele>
        <time>2012-07-03T14:29:53Z</time>
      </trkpt>
      <trkpt lat="43.34768" lon="-0.49965">
        <ele>128.47</ele>
        <time>2012-07-03T14:30:03Z</time>
      </trkpt>
      <trkpt lat="43.34754" lon="-0.4996">
        <ele>128.47</ele>
        <time>2012-07-03T14:30:13Z</time>
      </trkpt>
      <trkpt lat="43.34743" lon="-0.49957">
        <ele>128.95</ele>
        <time>2012-07-03T14:30:21Z</time>
      </trkpt>
      <trkpt lat="43.34734" lon="-0.49953">
        <ele>128.95</ele>
        <time>2012-07-03T14:30:30Z</time>
      </trkpt>
      <trkpt lat="43.34728" lon="-0.4995">
        <ele>128.47</ele>
        <time>2012-07-03T14:31:39Z</time>
      </trkpt>
      <trkpt lat="43.34718" lon="-0.49944">
        <ele>128.47</ele>
        <time>2012-07-03T14:31:48Z</time>
      </trkpt>
      <trkpt lat="43.34708" lon="-0.4994">
        <ele>128.47</ele>
        <time>2012-07-03T14:31:56Z</time>
      </trkpt>
      <trkpt lat="43.34697" lon="-0.49942">
        <ele>128.95</ele>
        <time>2012-07-03T14:32:06Z</time>
      </trkpt>
      <trkpt lat="43.34688" lon="-0.4994">
        <ele>128.47</ele>
        <time>2012-07-03T14:32:15Z</time>
      </trkpt>
      <trkpt lat="43.34681" lon="-0.49931">
        <ele>128.47</ele>
        <time>2012-07-03T14:32:25Z</time>
      </trkpt>
      <trkpt lat="43.34676" lon="-0.49916">
        <ele>128.47</ele>
        <time>2012-07-03T14:32:36Z</time>
      </trkpt>
      <trkpt lat="43.34669" lon="-0.49907">
        <ele>128.95</ele>
        <time>2012-07-03T14:32:45Z</time>
      </trkpt>
      <trkpt lat="43.34663" lon="-0.49893">
        <ele>128.95</ele>
        <time>2012-07-03T14:32:55Z</time>
      </trkpt>
      <trkpt lat="43.34656" lon="-0.49882">
        <ele>128.47</ele>
        <time>2012-07-03T14:33:05Z</time>
      </trkpt>
      <trkpt lat="43.34651" lon="-0.49872">
        <ele>128.95</ele>
        <time>2012-07-03T14:33:16Z</time>
      </trkpt>
      <trkpt lat="43.34646" lon="-0.4986">
        <ele>128.95</ele>
        <time>2012-07-03T14:33:25Z</time>
      </trkpt>
      <trkpt lat="43.3464" lon="-0.49847">
        <ele>128.95</ele>
        <time>2012-07-03T14:33:34Z</time>
      </trkpt>
      <trkpt lat="43.34634" lon="-0.49834">
        <ele>128.95</ele>
        <time>2012-07-03T14:33:44Z</time>
      </trkpt>
      <trkpt lat="43.3463" lon="-0.49819">
        <ele>128.47</ele>
        <time>2012-07-03T14:33:54Z</time>
      </trkpt>
      <trkpt lat="43.34626" lon="-0.49807">
        <ele>128.95</ele>
        <time>2012-07-03T14:34:02Z</time>
      </trkpt>
      <trkpt lat="43.34621" lon="-0.49795">
        <ele>128.95</ele>
        <time>2012-07-03T14:34:12Z</time>
      </trkpt>
      <trkpt lat="43.34616" lon="-0.49779">
        <ele>128.95</ele>
        <time>2012-07-03T14:34:22Z</time>
      </trkpt>
      <trkpt lat="43.34611" lon="-0.49766">
        <ele>128.47</ele>
        <time>2012-07-03T14:34:31Z</time>
      </trkpt>
      <trkpt lat="43.34606" lon="-0.49755">
        <ele>128.95</ele>
        <time>2012-07-03T14:34:40Z</time>
      </trkpt>
      <trkpt lat="43.34599" lon="-0.4974">
        <ele>128.95</ele>
        <time>2012-07-03T14:34:49Z</time>
      </trkpt>
      <trkpt lat="43.34589" lon="-0.49731">
        <ele>128.95</ele>
        <time>2012-07-03T14:35:00Z</time>
      </trkpt>
      <trkpt lat="43.3458" lon="-0.49721">
        <ele>128.47</ele>
        <time>2012-07-03T14:35:09Z</time>
      </trkpt>
      <trkpt lat="43.34571" lon="-0.4971">
        <ele>128.95</ele>
        <time>2012-07-03T14:35:18Z</time>
      </trkpt>
      <trkpt lat="43.34562" lon="-0.497">
        <ele>128.95</ele>
        <time>2012-07-03T14:35:28Z</time>
      </trkpt>
      <trkpt lat="43.34553" lon="-0.49689">
        <ele>129.43</ele>
        <time>2012-07-03T14:35:37Z</time>
      </trkpt>
      <trkpt lat="43.34544" lon="-0.49682">
        <ele>128.95</ele>
        <time>2012-07-03T14:35:46Z</time>
      </trkpt>
      <trkpt lat="43.34538" lon="-0.49673">
        <ele>128.95</ele>
        <time>2012-07-03T14:35:54Z</time>
      </trkpt>
      <trkpt lat="43.34533" lon="-0.49661">
        <ele>129.43</ele>
        <time>2012-07-03T14:36:02Z</time>
      </trkpt>
      <trkpt lat="43.34526" lon="-0.49653">
        <ele>128.95</ele>
        <time>2012-07-03T14:36:10Z</time>
      </trkpt>
      <trkpt lat="43.34517" lon="-0.49646">
        <ele>128.47</ele>
        <time>2012-07-03T14:36:17Z</time>
      </trkpt>
      <trkpt lat="43.3451" lon="-0.49638">
        <ele>128.95</ele>
        <time>2012-07-03T14:36:23Z</time>
      </trkpt>
      <trkpt lat="43.34505" lon="-0.49626">
        <ele>128.47</ele>
        <time>2012-07-03T14:36:33Z</time>
      </trkpt>
      <trkpt lat="43.34499" lon="-0.49617">
        <ele>129.43</ele>
        <time>2012-07-03T14:36:42Z</time>
      </trkpt>
      <trkpt lat="43.3449" lon="-0.49616">
        <ele>129.43</ele>
        <time>2012-07-03T14:36:54Z</time>
      </trkpt>
      <trkpt lat="43.34478" lon="-0.49615">
        <ele>129.43</ele>
        <time>2012-07-03T14:37:02Z</time>
      </trkpt>
      <trkpt lat="43.34471" lon="-0.49609">
        <ele>129.92</ele>
        <time>2012-07-03T14:37:09Z</time>
      </trkpt>
      <trkpt lat="43.34461" lon="-0.49603">
        <ele>129.92</ele>
        <time>2012-07-03T14:37:18Z</time>
      </trkpt>
      <trkpt lat="43.34452" lon="-0.49599">
        <ele>129.92</ele>
        <time>2012-07-03T14:37:26Z</time>
      </trkpt>
      <trkpt lat="43.34443" lon="-0.49593">
        <ele>129.43</ele>
        <time>2012-07-03T14:37:36Z</time>
      </trkpt>
      <trkpt lat="43.34434" lon="-0.49586">
        <ele>129.43</ele>
        <time>2012-07-03T14:37:45Z</time>
      </trkpt>
      <trkpt lat="43.34427" lon="-0.49578">
        <ele>129.43</ele>
        <time>2012-07-03T14:37:55Z</time>
      </trkpt>
      <trkpt lat="43.34421" lon="-0.49568">
        <ele>129.43</ele>
        <time>2012-07-03T14:38:06Z</time>
      </trkpt>
      <trkpt lat="43.34414" lon="-0.49557">
        <ele>129.43</ele>
        <time>2012-07-03T14:39:02Z</time>
      </trkpt>
      <trkpt lat="43.34409" lon="-0.49545">
        <ele>128.47</ele>
        <time>2012-07-03T14:40:56Z</time>
      </trkpt>
      <trkpt lat="43.34397" lon="-0.49548">
        <ele>128.95</ele>
        <time>2012-07-03T14:41:06Z</time>
      </trkpt>
      <trkpt lat="43.3439" lon="-0.49556">
        <ele>128.47</ele>
        <time>2012-07-03T14:41:14Z</time>
      </trkpt>
      <trkpt lat="43.34379" lon="-0.4956">
        <ele>128.95</ele>
        <time>2012-07-03T14:41:23Z</time>
      </trkpt>
      <trkpt lat="43.34371" lon="-0.49554">
        <ele>128.95</ele>
        <time>2012-07-03T14:41:31Z</time>
      </trkpt>
      <trkpt lat="43.34362" lon="-0.4955">
        <ele>128.95</ele>
        <time>2012-07-03T14:41:39Z</time>
      </trkpt>
      <trkpt lat="43.34352" lon="-0.49545">
        <ele>128.95</ele>
        <time>2012-07-03T14:41:48Z</time>
      </trkpt>
      <trkpt lat="43.34343" lon="-0.49541">
        <ele>128.95</ele>
        <time>2012-07-03T14:41:56Z</time>
      </trkpt>
      <trkpt lat="43.34332" lon="-0.49537">
        <ele>129.43</ele>
        <time>2012-07-03T14:42:05Z</time>
      </trkpt>
      <trkpt lat="43.34322" lon="-0.49534">
        <ele>128.95</ele>
        <time>2012-07-03T14:42:14Z</time>
      </trkpt>
      <trkpt lat="43.34311" lon="-0.4953">
        <ele>129.43</ele>
        <time>2012-07-03T14:42:24Z</time>
      </trkpt>
      <trkpt lat="43.34302" lon="-0.49525">
        <ele>129.43</ele>
        <time>2012-07-03T14:42:34Z</time>
      </trkpt>
      <trkpt lat="43.34296" lon="-0.49511">
        <ele>128.95</ele>
        <time>2012-07-03T14:42:43Z</time>
      </trkpt>
      <trkpt lat="43.34295" lon="-0.49497">
        <ele>128.95</ele>
        <time>2012-07-03T14:42:52Z</time>
      </trkpt>
      <trkpt lat="43.34292" lon="-0.49483">
        <ele>128.95</ele>
        <time>2012-07-03T14:43:00Z</time>
      </trkpt>
      <trkpt lat="43.34288" lon="-0.49472">
        <ele>129.92</ele>
        <time>2012-07-03T14:43:07Z</time>
      </trkpt>
      <trkpt lat="43.34284" lon="-0.4946">
        <ele>129.92</ele>
        <time>2012-07-03T14:43:14Z</time>
      </trkpt>
      <trkpt lat="43.34277" lon="-0.4945">
        <ele>129.92</ele>
        <time>2012-07-03T14:43:23Z</time>
      </trkpt>
      <trkpt lat="43.3427" lon="-0.49442">
        <ele>130.4</ele>
        <time>2012-07-03T14:43:32Z</time>
      </trkpt>
      <trkpt lat="43.34266" lon="-0.49432">
        <ele>129.92</ele>
        <time>2012-07-03T14:43:40Z</time>
      </trkpt>
      <trkpt lat="43.34259" lon="-0.49421">
        <ele>129.92</ele>
        <time>2012-07-03T14:43:49Z</time>
      </trkpt>
      <trkpt lat="43.34252" lon="-0.49409">
        <ele>129.92</ele>
        <time>2012-07-03T14:43:57Z</time>
      </trkpt>
      <trkpt lat="43.34246" lon="-0.49399">
        <ele>130.4</ele>
        <time>2012-07-03T14:44:05Z</time>
      </trkpt>
      <trkpt lat="43.34242" lon="-0.49387">
        <ele>129.92</ele>
        <time>2012-07-03T14:44:14Z</time>
      </trkpt>
      <trkpt lat="43.34236" lon="-0.49375">
        <ele>130.4</ele>
        <time>2012-07-03T14:44:23Z</time>
      </trkpt>
      <trkpt lat="43.34232" lon="-0.49363">
        <ele>130.4</ele>
        <time>2012-07-03T14:44:31Z</time>
      </trkpt>
      <trkpt lat="43.34228" lon="-0.49349">
        <ele>130.88</ele>
        <time>2012-07-03T14:44:40Z</time>
      </trkpt>
      <trkpt lat="43.34224" lon="-0.49336">
        <ele>130.88</ele>
        <time>2012-07-03T14:44:48Z</time>
      </trkpt>
      <trkpt lat="43.34221" lon="-0.49327">
        <ele>130.88</ele>
        <time>2012-07-03T14:44:56Z</time>
      </trkpt>
      <trkpt lat="43.34217" lon="-0.49314">
        <ele>130.88</ele>
        <time>2012-07-03T14:45:04Z</time>
      </trkpt>
      <trkpt lat="43.34213" lon="-0.49302">
        <ele>131.36</ele>
        <time>2012-07-03T14:45:12Z</time>
      </trkpt>
      <trkpt lat="43.34211" lon="-0.4929">
        <ele>131.36</ele>
        <time>2012-07-03T14:45:20Z</time>
      </trkpt>
      <trkpt lat="43.34206" lon="-0.49279">
        <ele>130.88</ele>
        <time>2012-07-03T14:45:28Z</time>
      </trkpt>
      <trkpt lat="43.34202" lon="-0.49268">
        <ele>130.88</ele>
        <time>2012-07-03T14:45:36Z</time>
      </trkpt>
      <trkpt lat="43.34199" lon="-0.49255">
        <ele>130.88</ele>
        <time>2012-07-03T14:45:44Z</time>
      </trkpt>
      <trkpt lat="43.34194" lon="-0.49242">
        <ele>131.36</ele>
        <time>2012-07-03T14:45:52Z</time>
      </trkpt>
      <trkpt lat="43.34189" lon="-0.49231">
        <ele>130.88</ele>
        <time>2012-07-03T14:45:59Z</time>
      </trkpt>
      <trkpt lat="43.34182" lon="-0.49219">
        <ele>130.88</ele>
        <time>2012-07-03T14:46:07Z</time>
      </trkpt>
      <trkpt lat="43.34174" lon="-0.4921">
        <ele>131.36</ele>
        <time>2012-07-03T14:46:15Z</time>
      </trkpt>
      <trkpt lat="43.34168" lon="-0.492">
        <ele>131.36</ele>
        <time>2012-07-03T14:46:23Z</time>
      </trkpt>
      <trkpt lat="43.34162" lon="-0.4919">
        <ele>131.36</ele>
        <time>2012-07-03T14:46:31Z</time>
      </trkpt>
      <trkpt lat="43.34156" lon="-0.49178">
        <ele>131.36</ele>
        <time>2012-07-03T14:46:40Z</time>
      </trkpt>
      <trkpt lat="43.34146" lon="-0.49173">
        <ele>131.84</ele>
        <time>2012-07-03T14:46:49Z</time>
      </trkpt>
      <trkpt lat="43.34139" lon="-0.49188">
        <ele>131.84</ele>
        <time>2012-07-03T14:47:26Z</time>
      </trkpt>
      <trkpt lat="43.34141" lon="-0.49199">
        <ele>132.32</ele>
        <time>2012-07-03T14:48:18Z</time>
      </trkpt>
      <trkpt lat="43.34145" lon="-0.49189">
        <ele>132.32</ele>
        <time>2012-07-03T14:49:21Z</time>
      </trkpt>
      <trkpt lat="43.34146" lon="-0.49194">
        <ele>131.84</ele>
        <time>2012-07-03T14:50:33Z</time>
      </trkpt>
      <trkpt lat="43.34143" lon="-0.49206">
        <ele>132.32</ele>
        <time>2012-07-03T14:50:52Z</time>
      </trkpt>
      <trkpt lat="43.3414" lon="-0.49218">
        <ele>131.84</ele>
        <time>2012-07-03T14:51:03Z</time>
      </trkpt>
      <trkpt lat="43.34135" lon="-0.49231">
        <ele>132.32</ele>
        <time>2012-07-03T14:51:11Z</time>
      </trkpt>
      <trkpt lat="43.3413" lon="-0.49243">
        <ele>132.32</ele>
        <time>2012-07-03T14:51:17Z</time>
      </trkpt>
      <trkpt lat="43.34125" lon="-0.49254">
        <ele>132.32</ele>
        <time>2012-07-03T14:51:31Z</time>
      </trkpt>
      <trkpt lat="43.34122" lon="-0.49266">
        <ele>131.84</ele>
        <time>2012-07-03T14:51:39Z</time>
      </trkpt>
      <trkpt lat="43.34118" lon="-0.49279">
        <ele>131.84</ele>
        <time>2012-07-03T14:51:47Z</time>
      </trkpt>
      <trkpt lat="43.34112" lon="-0.49292">
        <ele>131.84</ele>
        <time>2012-07-03T14:51:57Z</time>
      </trkpt>
      <trkpt lat="43.34109" lon="-0.49305">
        <ele>131.84</ele>
        <time>2012-07-03T14:52:04Z</time>
      </trkpt>
      <trkpt lat="43.34106" lon="-0.49319">
        <ele>131.36</ele>
        <time>2012-07-03T14:52:10Z</time>
      </trkpt>
      <trkpt lat="43.34102" lon="-0.49336">
        <ele>131.36</ele>
        <time>2012-07-03T14:52:17Z</time>
      </trkpt>
      <trkpt lat="43.34099" lon="-0.49352">
        <ele>131.36</ele>
        <time>2012-07-03T14:52:25Z</time>
      </trkpt>
      <trkpt lat="43.34094" lon="-0.4937">
        <ele>130.88</ele>
        <time>2012-07-03T14:52:35Z</time>
      </trkpt>
      <trkpt lat="43.34089" lon="-0.49381">
        <ele>131.36</ele>
        <time>2012-07-03T14:52:43Z</time>
      </trkpt>
      <trkpt lat="43.34085" lon="-0.49393">
        <ele>131.36</ele>
        <time>2012-07-03T14:52:52Z</time>
      </trkpt>
      <trkpt lat="43.34081" lon="-0.49404">
        <ele>131.36</ele>
        <time>2012-07-03T14:53:05Z</time>
      </trkpt>
      <trkpt lat="43.34077" lon="-0.49417">
        <ele>131.84</ele>
        <time>2012-07-03T14:53:14Z</time>
      </trkpt>
      <trkpt lat="43.34072" lon="-0.49429">
        <ele>131.84</ele>
        <time>2012-07-03T14:53:21Z</time>
      </trkpt>
      <trkpt lat="43.34069" lon="-0.49443">
        <ele>131.84</ele>
        <time>2012-07-03T14:53:27Z</time>
      </trkpt>
      <trkpt lat="43.34065" lon="-0.49465">
        <ele>131.36</ele>
        <time>2012-07-03T14:53:36Z</time>
      </trkpt>
      <trkpt lat="43.34058" lon="-0.49485">
        <ele>130.88</ele>
        <time>2012-07-03T14:54:20Z</time>
      </trkpt>
      <trkpt lat="43.3405" lon="-0.49483">
        <ele>131.84</ele>
        <time>2012-07-03T14:54:45Z</time>
      </trkpt>
      <trkpt lat="43.34046" lon="-0.49472">
        <ele>130.88</ele>
        <time>2012-07-03T14:55:01Z</time>
      </trkpt>
      <trkpt lat="43.34041" lon="-0.49458">
        <ele>130.88</ele>
        <time>2012-07-03T14:55:10Z</time>
      </trkpt>
      <trkpt lat="43.34036" lon="-0.49443">
        <ele>131.36</ele>
        <time>2012-07-03T14:55:20Z</time>
      </trkpt>
      <trkpt lat="43.34032" lon="-0.4943">
        <ele>131.36</ele>
        <time>2012-07-03T14:55:30Z</time>
      </trkpt>
      <trkpt lat="43.34029" lon="-0.49419">
        <ele>131.36</ele>
        <time>2012-07-03T14:55:41Z</time>
      </trkpt>
      <trkpt lat="43.3402" lon="-0.49409">
        <ele>130.88</ele>
        <time>2012-07-03T14:55:51Z</time>
      </trkpt>
      <trkpt lat="43.34009" lon="-0.49404">
        <ele>130.88</ele>
        <time>2012-07-03T14:56:00Z</time>
      </trkpt>
      <trkpt lat="43.34" lon="-0.49394">
        <ele>130.88</ele>
        <time>2012-07-03T14:56:09Z</time>
      </trkpt>
      <trkpt lat="43.33993" lon="-0.49384">
        <ele>130.88</ele>
        <time>2012-07-03T14:56:18Z</time>
      </trkpt>
      <trkpt lat="43.33986" lon="-0.49372">
        <ele>130.88</ele>
        <time>2012-07-03T14:56:28Z</time>
      </trkpt>
      <trkpt lat="43.33979" lon="-0.49364">
        <ele>130.88</ele>
        <time>2012-07-03T14:56:38Z</time>
      </trkpt>
      <trkpt lat="43.33971" lon="-0.49356">
        <ele>130.88</ele>
        <time>2012-07-03T14:56:57Z</time>
      </trkpt>
      <trkpt lat="43.33963" lon="-0.49347">
        <ele>131.36</ele>
        <time>2012-07-03T14:57:10Z</time>
      </trkpt>
      <trkpt lat="43.33952" lon="-0.49342">
        <ele>131.36</ele>
        <time>2012-07-03T14:57:18Z</time>
      </trkpt>
      <trkpt lat="43.33944" lon="-0.49335">
        <ele>130.88</ele>
        <time>2012-07-03T14:57:25Z</time>
      </trkpt>
      <trkpt lat="43.33938" lon="-0.49326">
        <ele>130.88</ele>
        <time>2012-07-03T14:57:32Z</time>
      </trkpt>
      <trkpt lat="43.33929" lon="-0.49318">
        <ele>131.36</ele>
        <time>2012-07-03T14:57:41Z</time>
      </trkpt>
      <trkpt lat="43.33918" lon="-0.49307">
        <ele>130.88</ele>
        <time>2012-07-03T14:57:51Z</time>
      </trkpt>
      <trkpt lat="43.33913" lon="-0.49296">
        <ele>130.88</ele>
        <time>2012-07-03T14:58:00Z</time>
      </trkpt>
      <trkpt lat="43.33908" lon="-0.49282">
        <ele>130.88</ele>
        <time>2012-07-03T14:58:09Z</time>
      </trkpt>
      <trkpt lat="43.33908" lon="-0.49268">
        <ele>130.88</ele>
        <time>2012-07-03T14:58:18Z</time>
      </trkpt>
      <trkpt lat="43.33907" lon="-0.49252">
        <ele>130.88</ele>
        <time>2012-07-03T14:58:28Z</time>
      </trkpt>
      <trkpt lat="43.33905" lon="-0.49236">
        <ele>130.4</ele>
        <time>2012-07-03T14:58:37Z</time>
      </trkpt>
      <trkpt lat="43.33907" lon="-0.49222">
        <ele>130.4</ele>
        <time>2012-07-03T14:58:47Z</time>
      </trkpt>
      <trkpt lat="43.3391" lon="-0.49209">
        <ele>129.92</ele>
        <time>2012-07-03T14:58:56Z</time>
      </trkpt>
      <trkpt lat="43.33913" lon="-0.49196">
        <ele>129.92</ele>
        <time>2012-07-03T14:59:06Z</time>
      </trkpt>
      <trkpt lat="43.33918" lon="-0.49182">
        <ele>129.92</ele>
        <time>2012-07-03T14:59:16Z</time>
      </trkpt>
      <trkpt lat="43.33921" lon="-0.49168">
        <ele>129.92</ele>
        <time>2012-07-03T14:59:25Z</time>
      </trkpt>
      <trkpt lat="43.33918" lon="-0.49153">
        <ele>129.92</ele>
        <time>2012-07-03T14:59:35Z</time>
      </trkpt>
      <trkpt lat="43.33914" lon="-0.49141">
        <ele>129.43</ele>
        <time>2012-07-03T14:59:45Z</time>
      </trkpt>
      <trkpt lat="43.33911" lon="-0.49129">
        <ele>129.92</ele>
        <time>2012-07-03T14:59:55Z</time>
      </trkpt>
      <trkpt lat="43.3391" lon="-0.49117">
        <ele>130.4</ele>
        <time>2012-07-03T15:00:04Z</time>
      </trkpt>
      <trkpt lat="43.3391" lon="-0.49103">
        <ele>130.4</ele>
        <time>2012-07-03T15:00:14Z</time>
      </trkpt>
      <trkpt lat="43.33911" lon="-0.49089">
        <ele>130.4</ele>
        <time>2012-07-03T15:00:23Z</time>
      </trkpt>
      <trkpt lat="43.33917" lon="-0.49078">
        <ele>130.4</ele>
        <time>2012-07-03T15:00:33Z</time>
      </trkpt>
      <trkpt lat="43.33922" lon="-0.49067">
        <ele>130.4</ele>
        <time>2012-07-03T15:00:42Z</time>
      </trkpt>
      <trkpt lat="43.33921" lon="-0.49053">
        <ele>130.4</ele>
        <time>2012-07-03T15:00:52Z</time>
      </trkpt>
      <trkpt lat="43.33921" lon="-0.49039">
        <ele>129.92</ele>
        <time>2012-07-03T15:01:01Z</time>
      </trkpt>
      <trkpt lat="43.33923" lon="-0.49025">
        <ele>130.4</ele>
        <time>2012-07-03T15:01:10Z</time>
      </trkpt>
      <trkpt lat="43.33926" lon="-0.49011">
        <ele>130.88</ele>
        <time>2012-07-03T15:01:20Z</time>
      </trkpt>
      <trkpt lat="43.33928" lon="-0.48999">
        <ele>130.4</ele>
        <time>2012-07-03T15:01:29Z</time>
      </trkpt>
      <trkpt lat="43.33931" lon="-0.48986">
        <ele>130.88</ele>
        <time>2012-07-03T15:01:37Z</time>
      </trkpt>
      <trkpt lat="43.33935" lon="-0.48972">
        <ele>130.88</ele>
        <time>2012-07-03T15:01:48Z</time>
      </trkpt>
      <trkpt lat="43.3394" lon="-0.48959">
        <ele>130.4</ele>
        <time>2012-07-03T15:01:58Z</time>
      </trkpt>
      <trkpt lat="43.33942" lon="-0.48943">
        <ele>130.4</ele>
        <time>2012-07-03T15:02:08Z</time>
      </trkpt>
      <trkpt lat="43.33946" lon="-0.48928">
        <ele>130.4</ele>
        <time>2012-07-03T15:02:17Z</time>
      </trkpt>
      <trkpt lat="43.33951" lon="-0.48915">
        <ele>130.4</ele>
        <time>2012-07-03T15:02:27Z</time>
      </trkpt>
      <trkpt lat="43.33956" lon="-0.48903">
        <ele>130.88</ele>
        <time>2012-07-03T15:02:36Z</time>
      </trkpt>
      <trkpt lat="43.33961" lon="-0.48888">
        <ele>130.88</ele>
        <time>2012-07-03T15:02:47Z</time>
      </trkpt>
      <trkpt lat="43.33966" lon="-0.48876">
        <ele>130.88</ele>
        <time>2012-07-03T15:02:57Z</time>
      </trkpt>
      <trkpt lat="43.33971" lon="-0.48866">
        <ele>130.4</ele>
        <time>2012-07-03T15:03:07Z</time>
      </trkpt>
      <trkpt lat="43.33977" lon="-0.48852">
        <ele>130.4</ele>
        <time>2012-07-03T15:03:16Z</time>
      </trkpt>
      <trkpt lat="43.33982" lon="-0.48842">
        <ele>130.88</ele>
        <time>2012-07-03T15:03:24Z</time>
      </trkpt>
      <trkpt lat="43.3399" lon="-0.48828">
        <ele>130.88</ele>
        <time>2012-07-03T15:03:34Z</time>
      </trkpt>
      <trkpt lat="43.33999" lon="-0.48818">
        <ele>129.92</ele>
        <time>2012-07-03T15:03:44Z</time>
      </trkpt>
      <trkpt lat="43.34004" lon="-0.48809">
        <ele>130.88</ele>
        <time>2012-07-03T15:03:54Z</time>
      </trkpt>
      <trkpt lat="43.34005" lon="-0.48794">
        <ele>130.4</ele>
        <time>2012-07-03T15:04:03Z</time>
      </trkpt>
      <trkpt lat="43.34005" lon="-0.48778">
        <ele>129.92</ele>
        <time>2012-07-03T15:04:13Z</time>
      </trkpt>
      <trkpt lat="43.34003" lon="-0.48769">
        <ele>129.92</ele>
        <time>2012-07-03T15:05:22Z</time>
      </trkpt>
      <trkpt lat="43.34002" lon="-0.48764">
        <ele>130.4</ele>
        <time>2012-07-03T15:06:09Z</time>
      </trkpt>
      <trkpt lat="43.34012" lon="-0.48762">
        <ele>130.4</ele>
        <time>2012-07-03T15:06:17Z</time>
      </trkpt>
      <trkpt lat="43.34015" lon="-0.48761">
        <ele>130.4</ele>
        <time>2012-07-03T15:06:30Z</time>
      </trkpt>
      <trkpt lat="43.34011" lon="-0.48759">
        <ele>130.4</ele>
        <time>2012-07-03T15:07:55Z</time>
      </trkpt>
      <trkpt lat="43.34016" lon="-0.48745">
        <ele>129.92</ele>
        <time>2012-07-03T15:08:39Z</time>
      </trkpt>
      <trkpt lat="43.34025" lon="-0.48736">
        <ele>130.88</ele>
        <time>2012-07-03T15:08:49Z</time>
      </trkpt>
      <trkpt lat="43.34032" lon="-0.48725">
        <ele>130.88</ele>
        <time>2012-07-03T15:08:59Z</time>
      </trkpt>
      <trkpt lat="43.34032" lon="-0.48711">
        <ele>130.88</ele>
        <time>2012-07-03T15:09:09Z</time>
      </trkpt>
      <trkpt lat="43.34025" lon="-0.48697">
        <ele>131.36</ele>
        <time>2012-07-03T15:09:19Z</time>
      </trkpt>
      <trkpt lat="43.34019" lon="-0.48685">
        <ele>131.36</ele>
        <time>2012-07-03T15:09:29Z</time>
      </trkpt>
      <trkpt lat="43.34014" lon="-0.48672">
        <ele>130.88</ele>
        <time>2012-07-03T15:09:38Z</time>
      </trkpt>
      <trkpt lat="43.34008" lon="-0.48661">
        <ele>130.88</ele>
        <time>2012-07-03T15:09:47Z</time>
      </trkpt>
      <trkpt lat="43.34001" lon="-0.4865">
        <ele>130.88</ele>
        <time>2012-07-03T15:09:56Z</time>
      </trkpt>
      <trkpt lat="43.33998" lon="-0.48638">
        <ele>130.88</ele>
        <time>2012-07-03T15:10:06Z</time>
      </trkpt>
      <trkpt lat="43.33993" lon="-0.48625">
        <ele>130.88</ele>
        <time>2012-07-03T15:10:16Z</time>
      </trkpt>
      <trkpt lat="43.33988" lon="-0.48612">
        <ele>130.88</ele>
        <time>2012-07-03T15:10:26Z</time>
      </trkpt>
      <trkpt lat="43.33984" lon="-0.48602">
        <ele>130.88</ele>
        <time>2012-07-03T15:10:35Z</time>
      </trkpt>
      <trkpt lat="43.33981" lon="-0.4859">
        <ele>130.88</ele>
        <time>2012-07-03T15:10:50Z</time>
      </trkpt>
      <trkpt lat="43.33981" lon="-0.48575">
        <ele>130.88</ele>
        <time>2012-07-03T15:11:00Z</time>
      </trkpt>
      <trkpt lat="43.33982" lon="-0.4856">
        <ele>130.88</ele>
        <time>2012-07-03T15:11:10Z</time>
      </trkpt>
      <trkpt lat="43.33983" lon="-0.48546">
        <ele>130.88</ele>
        <time>2012-07-03T15:11:20Z</time>
      </trkpt>
      <trkpt lat="43.33982" lon="-0.48532">
        <ele>130.4</ele>
        <time>2012-07-03T15:11:29Z</time>
      </trkpt>
      <trkpt lat="43.33981" lon="-0.48516">
        <ele>130.4</ele>
        <time>2012-07-03T15:11:39Z</time>
      </trkpt>
      <trkpt lat="43.33982" lon="-0.485">
        <ele>130.4</ele>
        <time>2012-07-03T15:11:48Z</time>
      </trkpt>
      <trkpt lat="43.33982" lon="-0.48483">
        <ele>129.92</ele>
        <time>2012-07-03T15:11:57Z</time>
      </trkpt>
      <trkpt lat="43.33981" lon="-0.48469">
        <ele>130.4</ele>
        <time>2012-07-03T15:12:06Z</time>
      </trkpt>
      <trkpt lat="43.3398" lon="-0.48455">
        <ele>130.4</ele>
        <time>2012-07-03T15:12:15Z</time>
      </trkpt>
      <trkpt lat="43.33977" lon="-0.48441">
        <ele>130.4</ele>
        <time>2012-07-03T15:12:23Z</time>
      </trkpt>
      <trkpt lat="43.33973" lon="-0.4843">
        <ele>130.4</ele>
        <time>2012-07-03T15:12:33Z</time>
      </trkpt>
      <trkpt lat="43.33971" lon="-0.48417">
        <ele>129.92</ele>
        <time>2012-07-03T15:12:44Z</time>
      </trkpt>
      <trkpt lat="43.33968" lon="-0.48404">
        <ele>130.4</ele>
        <time>2012-07-03T15:12:53Z</time>
      </trkpt>
      <trkpt lat="43.33967" lon="-0.48389">
        <ele>130.4</ele>
        <time>2012-07-03T15:13:03Z</time>
      </trkpt>
      <trkpt lat="43.33964" lon="-0.48373">
        <ele>129.92</ele>
        <time>2012-07-03T15:13:13Z</time>
      </trkpt>
      <trkpt lat="43.3396" lon="-0.48359">
        <ele>130.4</ele>
        <time>2012-07-03T15:13:22Z</time>
      </trkpt>
      <trkpt lat="43.3396" lon="-0.48345">
        <ele>130.88</ele>
        <time>2012-07-03T15:13:31Z</time>
      </trkpt>
      <trkpt lat="43.3396" lon="-0.48327">
        <ele>130.4</ele>
        <time>2012-07-03T15:13:41Z</time>
      </trkpt>
      <trkpt lat="43.33958" lon="-0.48309">
        <ele>130.88</ele>
        <time>2012-07-03T15:13:50Z</time>
      </trkpt>
      <trkpt lat="43.33956" lon="-0.48296">
        <ele>130.4</ele>
        <time>2012-07-03T15:13:59Z</time>
      </trkpt>
      <trkpt lat="43.33952" lon="-0.48284">
        <ele>130.88</ele>
        <time>2012-07-03T15:14:07Z</time>
      </trkpt>
      <trkpt lat="43.33947" lon="-0.48273">
        <ele>130.4</ele>
        <time>2012-07-03T15:14:16Z</time>
      </trkpt>
      <trkpt lat="43.33941" lon="-0.48264">
        <ele>130.4</ele>
        <time>2012-07-03T15:14:25Z</time>
      </trkpt>
      <trkpt lat="43.33935" lon="-0.48253">
        <ele>129.92</ele>
        <time>2012-07-03T15:14:34Z</time>
      </trkpt>
      <trkpt lat="43.33929" lon="-0.4824">
        <ele>129.92</ele>
        <time>2012-07-03T15:14:44Z</time>
      </trkpt>
      <trkpt lat="43.33931" lon="-0.48225">
        <ele>129.92</ele>
        <time>2012-07-03T15:14:54Z</time>
      </trkpt>
      <trkpt lat="43.33938" lon="-0.48212">
        <ele>129.92</ele>
        <time>2012-07-03T15:15:03Z</time>
      </trkpt>
      <trkpt lat="43.33945" lon="-0.48202">
        <ele>130.4</ele>
        <time>2012-07-03T15:15:13Z</time>
      </trkpt>
      <trkpt lat="43.33954" lon="-0.48192">
        <ele>129.92</ele>
        <time>2012-07-03T15:15:24Z</time>
      </trkpt>
      <trkpt lat="43.33962" lon="-0.48182">
        <ele>129.43</ele>
        <time>2012-07-03T15:15:50Z</time>
      </trkpt>
      <trkpt lat="43.3397" lon="-0.48171">
        <ele>129.43</ele>
        <time>2012-07-03T15:15:59Z</time>
      </trkpt>
      <trkpt lat="43.33978" lon="-0.48164">
        <ele>129.92</ele>
        <time>2012-07-03T15:16:07Z</time>
      </trkpt>
      <trkpt lat="43.33987" lon="-0.48159">
        <ele>129.43</ele>
        <time>2012-07-03T15:16:16Z</time>
      </trkpt>
      <trkpt lat="43.33996" lon="-0.48158">
        <ele>129.43</ele>
        <time>2012-07-03T15:16:28Z</time>
      </trkpt>
      <trkpt lat="43.34003" lon="-0.48166">
        <ele>128.95</ele>
        <time>2012-07-03T15:17:29Z</time>
      </trkpt>
      <trkpt lat="43.34018" lon="-0.48174">
        <ele>129.92</ele>
        <time>2012-07-03T15:18:25Z</time>
      </trkpt>
      <trkpt lat="43.34027" lon="-0.4819">
        <ele>129.92</ele>
        <time>2012-07-03T15:18:34Z</time>
      </trkpt>
      <trkpt lat="43.34039" lon="-0.48194">
        <ele>129.43</ele>
        <time>2012-07-03T15:18:43Z</time>
      </trkpt>
      <trkpt lat="43.34052" lon="-0.48196">
        <ele>129.43</ele>
        <time>2012-07-03T15:18:51Z</time>
      </trkpt>
      <trkpt lat="43.34063" lon="-0.48197">
        <ele>129.43</ele>
        <time>2012-07-03T15:18:58Z</time>
      </trkpt>
      <trkpt lat="43.34075" lon="-0.482">
        <ele>129.43</ele>
        <time>2012-07-03T15:19:06Z</time>
      </trkpt>
      <trkpt lat="43.34082" lon="-0.48206">
        <ele>129.43</ele>
        <time>2012-07-03T15:19:15Z</time>
      </trkpt>
      <trkpt lat="43.34092" lon="-0.48212">
        <ele>129.43</ele>
        <time>2012-07-03T15:19:23Z</time>
      </trkpt>
      <trkpt lat="43.34103" lon="-0.48218">
        <ele>129.92</ele>
        <time>2012-07-03T15:19:30Z</time>
      </trkpt>
      <trkpt lat="43.34113" lon="-0.48224">
        <ele>129.92</ele>
        <time>2012-07-03T15:19:37Z</time>
      </trkpt>
      <trkpt lat="43.34122" lon="-0.4823">
        <ele>129.43</ele>
        <time>2012-07-03T15:19:44Z</time>
      </trkpt>
      <trkpt lat="43.34127" lon="-0.48239">
        <ele>129.92</ele>
        <time>2012-07-03T15:19:52Z</time>
      </trkpt>
      <trkpt lat="43.34128" lon="-0.48251">
        <ele>129.43</ele>
        <time>2012-07-03T15:20:00Z</time>
      </trkpt>
      <trkpt lat="43.34135" lon="-0.48261">
        <ele>129.92</ele>
        <time>2012-07-03T15:20:08Z</time>
      </trkpt>
      <trkpt lat="43.34143" lon="-0.48272">
        <ele>129.92</ele>
        <time>2012-07-03T15:20:17Z</time>
      </trkpt>
      <trkpt lat="43.34145" lon="-0.48276">
        <ele>129.92</ele>
        <time>2012-07-03T15:20:31Z</time>
      </trkpt>
      <trkpt lat="43.34148" lon="-0.4829">
        <ele>129.92</ele>
        <time>2012-07-03T15:20:40Z</time>
      </trkpt>
      <trkpt lat="43.34152" lon="-0.48305">
        <ele>129.92</ele>
        <time>2012-07-03T15:20:49Z</time>
      </trkpt>
      <trkpt lat="43.34158" lon="-0.48317">
        <ele>129.92</ele>
        <time>2012-07-03T15:20:57Z</time>
      </trkpt>
      <trkpt lat="43.34164" lon="-0.4833">
        <ele>129.92</ele>
        <time>2012-07-03T15:21:05Z</time>
      </trkpt>
      <trkpt lat="43.34168" lon="-0.4834">
        <ele>129.92</ele>
        <time>2012-07-03T15:21:14Z</time>
      </trkpt>
      <trkpt lat="43.34174" lon="-0.48355">
        <ele>129.92</ele>
        <time>2012-07-03T15:21:24Z</time>
      </trkpt>
      <trkpt lat="43.34177" lon="-0.48366">
        <ele>129.92</ele>
        <time>2012-07-03T15:21:32Z</time>
      </trkpt>
      <trkpt lat="43.34182" lon="-0.48377">
        <ele>129.92</ele>
        <time>2012-07-03T15:21:46Z</time>
      </trkpt>
      <trkpt lat="43.34187" lon="-0.48391">
        <ele>129.43</ele>
        <time>2012-07-03T15:21:55Z</time>
      </trkpt>
      <trkpt lat="43.34192" lon="-0.48406">
        <ele>129.92</ele>
        <time>2012-07-03T15:22:04Z</time>
      </trkpt>
      <trkpt lat="43.34201" lon="-0.48415">
        <ele>129.92</ele>
        <time>2012-07-03T15:22:12Z</time>
      </trkpt>
      <trkpt lat="43.34211" lon="-0.48423">
        <ele>129.92</ele>
        <time>2012-07-03T15:22:21Z</time>
      </trkpt>
      <trkpt lat="43.34223" lon="-0.48419">
        <ele>129.92</ele>
        <time>2012-07-03T15:22:30Z</time>
      </trkpt>
      <trkpt lat="43.34234" lon="-0.48411">
        <ele>129.92</ele>
        <time>2012-07-03T15:22:39Z</time>
      </trkpt>
      <trkpt lat="43.34241" lon="-0.48402">
        <ele>129.92</ele>
        <time>2012-07-03T15:22:47Z</time>
      </trkpt>
      <trkpt lat="43.34249" lon="-0.48392">
        <ele>130.88</ele>
        <time>2012-07-03T15:22:56Z</time>
      </trkpt>
      <trkpt lat="43.34256" lon="-0.48384">
        <ele>130.4</ele>
        <time>2012-07-03T15:23:05Z</time>
      </trkpt>
      <trkpt lat="43.34265" lon="-0.48375">
        <ele>130.4</ele>
        <time>2012-07-03T15:23:14Z</time>
      </trkpt>
      <trkpt lat="43.34272" lon="-0.48369">
        <ele>130.88</ele>
        <time>2012-07-03T15:23:22Z</time>
      </trkpt>
      <trkpt lat="43.3428" lon="-0.48362">
        <ele>130.88</ele>
        <time>2012-07-03T15:23:30Z</time>
      </trkpt>
      <trkpt lat="43.34287" lon="-0.48353">
        <ele>130.88</ele>
        <time>2012-07-03T15:23:38Z</time>
      </trkpt>
      <trkpt lat="43.34294" lon="-0.48346">
        <ele>130.88</ele>
        <time>2012-07-03T15:23:47Z</time>
      </trkpt>
      <trkpt lat="43.34305" lon="-0.48339">
        <ele>130.4</ele>
        <time>2012-07-03T15:23:57Z</time>
      </trkpt>
      <trkpt lat="43.34315" lon="-0.48336">
        <ele>130.88</ele>
        <time>2012-07-03T15:24:05Z</time>
      </trkpt>
      <trkpt lat="43.34324" lon="-0.48333">
        <ele>130.88</ele>
        <time>2012-07-03T15:24:12Z</time>
      </trkpt>
      <trkpt lat="43.34333" lon="-0.48328">
        <ele>130.88</ele>
        <time>2012-07-03T15:24:19Z</time>
      </trkpt>
      <trkpt lat="43.34343" lon="-0.48321">
        <ele>131.84</ele>
        <time>2012-07-03T15:24:27Z</time>
      </trkpt>
      <trkpt lat="43.34349" lon="-0.48317">
        <ele>130.88</ele>
        <time>2012-07-03T15:24:36Z</time>
      </trkpt>
      <trkpt lat="43.34358" lon="-0.48315">
        <ele>130.88</ele>
        <time>2012-07-03T15:24:45Z</time>
      </trkpt>
      <trkpt lat="43.34369" lon="-0.48314">
        <ele>130.88</ele>
        <time>2012-07-03T15:24:54Z</time>
      </trkpt>
      <trkpt lat="43.34379" lon="-0.48316">
        <ele>130.88</ele>
        <time>2012-07-03T15:25:02Z</time>
      </trkpt>
      <trkpt lat="43.34388" lon="-0.48316">
        <ele>130.88</ele>
        <time>2012-07-03T15:25:09Z</time>
      </trkpt>
      <trkpt lat="43.34391" lon="-0.48321">
        <ele>130.4</ele>
        <time>2012-07-03T15:25:54Z</time>
      </trkpt>
    </trkseg>
  </trk>
</gpx>